<?xml version="1.0" encoding="UTF-8" standalone="no" ?>
<gpx xmlns="http://www.topografix.com/GPX/1/1" xmlns:xsi="http://www.w3.org/2001/XMLSchema-instance" xsi:schemaLocation="http://www.topografix.com/GPX/1/1 http://www.topografix.com/GPX/1/1/gpx.xsd" version="1.1" creator="VisuGPX - https://www.visugpx.com">
  <metadata>
    <name>GR44 De Les Vans (Ardèche) à Champerboux (Lozère) (2021)</name>
    <desc><![CDATA[
Randonnée sur le GR44 à travers l'Ardèche et la Lozère de Les Vans à Champerboux. Gîtes d'étapes, Chambres d'hôtes, Hôtels, Camping, Refuges, Auberges.]]></desc>
  </metadata>
  <trk>
    <name><![CDATA[GR44 De Les Vans (Ardèche) à Champerboux (Lozère) (2021)]]></name>
    <desc><![CDATA[Randonnée sur le GR44 à travers l'Ardèche et la Lozère de Les Vans à Champerboux. Gîtes d'étapes, Chambres d'hôtes, Hôtels, Camping, Refuges, Auberges.]]></desc>
    <extensions>
      <line xmlns="http://www.topografix.com/GPX/gpx_style/0/2">
        <color>0000FF</color>
        <width>4</width>
      </line>
    </extensions>
    <trkseg>
      <trkpt lat="44.40269" lon="4.13297">
        <ele>191.131</ele>
        <time>2021-01-11T11:57:43Z</time>
      </trkpt>
      <trkpt lat="44.40263" lon="4.1328">
        <ele>194.061</ele>
        <time>2021-01-11T11:58:03Z</time>
      </trkpt>
      <trkpt lat="44.40275" lon="4.13262">
        <ele>194.407</ele>
        <time>2021-01-11T11:58:23Z</time>
      </trkpt>
      <trkpt lat="44.40342" lon="4.13134">
        <ele>201.408</ele>
        <time>2021-01-11T11:58:43Z</time>
      </trkpt>
      <trkpt lat="44.40312" lon="4.13117">
        <ele>213.619</ele>
        <time>2021-01-11T11:59:03Z</time>
      </trkpt>
      <trkpt lat="44.40299" lon="4.13056">
        <ele>222.586</ele>
        <time>2021-01-11T11:59:23Z</time>
      </trkpt>
      <trkpt lat="44.40201" lon="4.12911">
        <ele>254.91</ele>
        <time>2021-01-11T11:59:43Z</time>
      </trkpt>
      <trkpt lat="44.40128" lon="4.12859">
        <ele>285.02</ele>
        <time>2021-01-11T12:00:03Z</time>
      </trkpt>
      <trkpt lat="44.40103" lon="4.1279">
        <ele>292.979</ele>
        <time>2021-01-11T12:00:23Z</time>
      </trkpt>
      <trkpt lat="44.40048" lon="4.1279">
        <ele>302.271</ele>
        <time>2021-01-11T12:00:43Z</time>
      </trkpt>
      <trkpt lat="44.40023" lon="4.12765">
        <ele>303.463</ele>
        <time>2021-01-11T12:01:03Z</time>
      </trkpt>
      <trkpt lat="44.3998" lon="4.12687">
        <ele>306.435</ele>
        <time>2021-01-11T12:01:23Z</time>
      </trkpt>
      <trkpt lat="44.39944" lon="4.12644">
        <ele>305.753</ele>
        <time>2021-01-11T12:01:43Z</time>
      </trkpt>
      <trkpt lat="44.39907" lon="4.12567">
        <ele>301.204</ele>
        <time>2021-01-11T12:02:03Z</time>
      </trkpt>
      <trkpt lat="44.39846" lon="4.12533">
        <ele>301.314</ele>
        <time>2021-01-11T12:02:23Z</time>
      </trkpt>
      <trkpt lat="44.39839" lon="4.12516">
        <ele>300.908</ele>
        <time>2021-01-11T12:02:43Z</time>
      </trkpt>
      <trkpt lat="44.39686" lon="4.12396">
        <ele>309.791</ele>
        <time>2021-01-11T12:03:03Z</time>
      </trkpt>
      <trkpt lat="44.39637" lon="4.12318">
        <ele>309.538</ele>
        <time>2021-01-11T12:03:23Z</time>
      </trkpt>
      <trkpt lat="44.39594" lon="4.12224">
        <ele>310.322</ele>
        <time>2021-01-11T12:03:43Z</time>
      </trkpt>
      <trkpt lat="44.39527" lon="4.12138">
        <ele>310.172</ele>
        <time>2021-01-11T12:04:03Z</time>
      </trkpt>
      <trkpt lat="44.39441" lon="4.12104">
        <ele>314.421</ele>
        <time>2021-01-11T12:04:23Z</time>
      </trkpt>
      <trkpt lat="44.3941" lon="4.12009">
        <ele>319.763</ele>
        <time>2021-01-11T12:04:43Z</time>
      </trkpt>
      <trkpt lat="44.39312" lon="4.11932">
        <ele>333.475</ele>
        <time>2021-01-11T12:05:03Z</time>
      </trkpt>
      <trkpt lat="44.39263" lon="4.11906">
        <ele>338.517</ele>
        <time>2021-01-11T12:05:23Z</time>
      </trkpt>
      <trkpt lat="44.3922" lon="4.11846">
        <ele>347.294</ele>
        <time>2021-01-11T12:05:43Z</time>
      </trkpt>
      <trkpt lat="44.39122" lon="4.11735">
        <ele>363.957</ele>
        <time>2021-01-11T12:06:03Z</time>
      </trkpt>
      <trkpt lat="44.39116" lon="4.11709">
        <ele>364.522</ele>
        <time>2021-01-11T12:06:23Z</time>
      </trkpt>
      <trkpt lat="44.39128" lon="4.11649">
        <ele>368.408</ele>
        <time>2021-01-11T12:06:43Z</time>
      </trkpt>
      <trkpt lat="44.39024" lon="4.11615">
        <ele>384.555</ele>
        <time>2021-01-11T12:07:03Z</time>
      </trkpt>
      <trkpt lat="44.38987" lon="4.11589">
        <ele>388.712</ele>
        <time>2021-01-11T12:07:23Z</time>
      </trkpt>
      <trkpt lat="44.38956" lon="4.11417">
        <ele>397.986</ele>
        <time>2021-01-11T12:07:43Z</time>
      </trkpt>
      <trkpt lat="44.38956" lon="4.11357">
        <ele>396.626</ele>
        <time>2021-01-11T12:08:03Z</time>
      </trkpt>
      <trkpt lat="44.39024" lon="4.11203">
        <ele>411.345</ele>
        <time>2021-01-11T12:08:23Z</time>
      </trkpt>
      <trkpt lat="44.39036" lon="4.11151">
        <ele>415.867</ele>
        <time>2021-01-11T12:08:43Z</time>
      </trkpt>
      <trkpt lat="44.3903" lon="4.11134">
        <ele>417.179</ele>
        <time>2021-01-11T12:09:03Z</time>
      </trkpt>
      <trkpt lat="44.38981" lon="4.11108">
        <ele>421.591</ele>
        <time>2021-01-11T12:09:23Z</time>
      </trkpt>
      <trkpt lat="44.38993" lon="4.111">
        <ele>423.082</ele>
        <time>2021-01-11T12:09:43Z</time>
      </trkpt>
      <trkpt lat="44.38981" lon="4.11091">
        <ele>426.143</ele>
        <time>2021-01-11T12:10:03Z</time>
      </trkpt>
      <trkpt lat="44.38938" lon="4.11048">
        <ele>435.017</ele>
        <time>2021-01-11T12:10:23Z</time>
      </trkpt>
      <trkpt lat="44.38901" lon="4.11057">
        <ele>429.408</ele>
        <time>2021-01-11T12:10:43Z</time>
      </trkpt>
      <trkpt lat="44.38883" lon="4.11039">
        <ele>427.334</ele>
        <time>2021-01-11T12:11:03Z</time>
      </trkpt>
      <trkpt lat="44.38932" lon="4.11014">
        <ele>439.791</ele>
        <time>2021-01-11T12:11:23Z</time>
      </trkpt>
      <trkpt lat="44.38968" lon="4.10936">
        <ele>451.765</ele>
        <time>2021-01-11T12:11:43Z</time>
      </trkpt>
      <trkpt lat="44.38975" lon="4.10885">
        <ele>457.055</ele>
        <time>2021-01-11T12:12:03Z</time>
      </trkpt>
      <trkpt lat="44.38968" lon="4.10842">
        <ele>457.424</ele>
        <time>2021-01-11T12:12:23Z</time>
      </trkpt>
      <trkpt lat="44.38907" lon="4.10748">
        <ele>456.036</ele>
        <time>2021-01-11T12:12:43Z</time>
      </trkpt>
      <trkpt lat="44.38901" lon="4.10653">
        <ele>468.278</ele>
        <time>2021-01-11T12:13:03Z</time>
      </trkpt>
      <trkpt lat="44.38797" lon="4.10679">
        <ele>462.38</ele>
        <time>2021-01-11T12:13:23Z</time>
      </trkpt>
      <trkpt lat="44.38803" lon="4.10585">
        <ele>465.136</ele>
        <time>2021-01-11T12:13:43Z</time>
      </trkpt>
      <trkpt lat="44.38834" lon="4.10482">
        <ele>468.817</ele>
        <time>2021-01-11T12:14:03Z</time>
      </trkpt>
      <trkpt lat="44.38821" lon="4.10404">
        <ele>471.718</ele>
        <time>2021-01-11T12:14:23Z</time>
      </trkpt>
      <trkpt lat="44.3868" lon="4.10413">
        <ele>458.208</ele>
        <time>2021-01-11T12:14:43Z</time>
      </trkpt>
      <trkpt lat="44.38674" lon="4.10387">
        <ele>461.679</ele>
        <time>2021-01-11T12:15:03Z</time>
      </trkpt>
      <trkpt lat="44.38662" lon="4.10301">
        <ele>460.436</ele>
        <time>2021-01-11T12:15:23Z</time>
      </trkpt>
      <trkpt lat="44.38674" lon="4.10215">
        <ele>468.87</ele>
        <time>2021-01-11T12:15:43Z</time>
      </trkpt>
      <trkpt lat="44.38607" lon="4.1019">
        <ele>469.32</ele>
        <time>2021-01-11T12:16:03Z</time>
      </trkpt>
      <trkpt lat="44.38558" lon="4.10147">
        <ele>485.029</ele>
        <time>2021-01-11T12:16:23Z</time>
      </trkpt>
      <trkpt lat="44.38496" lon="4.10147">
        <ele>493.821</ele>
        <time>2021-01-11T12:16:43Z</time>
      </trkpt>
      <trkpt lat="44.38447" lon="4.10104">
        <ele>507.373</ele>
        <time>2021-01-11T12:17:03Z</time>
      </trkpt>
      <trkpt lat="44.38429" lon="4.10061">
        <ele>512.155</ele>
        <time>2021-01-11T12:17:23Z</time>
      </trkpt>
      <trkpt lat="44.38423" lon="4.10027">
        <ele>513.353</ele>
        <time>2021-01-11T12:17:43Z</time>
      </trkpt>
      <trkpt lat="44.38441" lon="4.09975">
        <ele>518.104</ele>
        <time>2021-01-11T12:18:03Z</time>
      </trkpt>
      <trkpt lat="44.38459" lon="4.09829">
        <ele>531.914</ele>
        <time>2021-01-11T12:18:23Z</time>
      </trkpt>
      <trkpt lat="44.38466" lon="4.09864">
        <ele>530.508</ele>
        <time>2021-01-11T12:18:43Z</time>
      </trkpt>
      <trkpt lat="44.3849" lon="4.09761">
        <ele>554.871</ele>
        <time>2021-01-11T12:19:03Z</time>
      </trkpt>
      <trkpt lat="44.3849" lon="4.09718">
        <ele>565.478</ele>
        <time>2021-01-11T12:19:23Z</time>
      </trkpt>
      <trkpt lat="44.38478" lon="4.09683">
        <ele>572.462</ele>
        <time>2021-01-11T12:19:43Z</time>
      </trkpt>
      <trkpt lat="44.38349" lon="4.09589">
        <ele>584.332</ele>
        <time>2021-01-11T12:20:03Z</time>
      </trkpt>
      <trkpt lat="44.38343" lon="4.09503">
        <ele>593.991</ele>
        <time>2021-01-11T12:20:23Z</time>
      </trkpt>
      <trkpt lat="44.38392" lon="4.09392">
        <ele>597.713</ele>
        <time>2021-01-11T12:20:43Z</time>
      </trkpt>
      <trkpt lat="44.38447" lon="4.09323">
        <ele>589.645</ele>
        <time>2021-01-11T12:21:03Z</time>
      </trkpt>
      <trkpt lat="44.38515" lon="4.09297">
        <ele>596.517</ele>
        <time>2021-01-11T12:21:23Z</time>
      </trkpt>
      <trkpt lat="44.38539" lon="4.09306">
        <ele>606.541</ele>
        <time>2021-01-11T12:21:43Z</time>
      </trkpt>
      <trkpt lat="44.38539" lon="4.0922">
        <ele>600.581</ele>
        <time>2021-01-11T12:22:03Z</time>
      </trkpt>
      <trkpt lat="44.38558" lon="4.091">
        <ele>599.709</ele>
        <time>2021-01-11T12:22:23Z</time>
      </trkpt>
      <trkpt lat="44.38539" lon="4.08945">
        <ele>601.508</ele>
        <time>2021-01-11T12:22:43Z</time>
      </trkpt>
      <trkpt lat="44.38551" lon="4.08885">
        <ele>604.58</ele>
        <time>2021-01-11T12:23:03Z</time>
      </trkpt>
      <trkpt lat="44.38564" lon="4.08868">
        <ele>605.157</ele>
        <time>2021-01-11T12:23:23Z</time>
      </trkpt>
      <trkpt lat="44.38631" lon="4.08885">
        <ele>607.491</ele>
        <time>2021-01-11T12:23:43Z</time>
      </trkpt>
      <trkpt lat="44.38742" lon="4.08868">
        <ele>609.751</ele>
        <time>2021-01-11T12:24:03Z</time>
      </trkpt>
      <trkpt lat="44.38809" lon="4.08825">
        <ele>608.12</ele>
        <time>2021-01-11T12:24:23Z</time>
      </trkpt>
      <trkpt lat="44.38895" lon="4.08722">
        <ele>589.282</ele>
        <time>2021-01-11T12:24:43Z</time>
      </trkpt>
      <trkpt lat="44.38938" lon="4.08696">
        <ele>587.684</ele>
        <time>2021-01-11T12:25:03Z</time>
      </trkpt>
      <trkpt lat="44.38975" lon="4.08705">
        <ele>594.366</ele>
        <time>2021-01-11T12:25:23Z</time>
      </trkpt>
      <trkpt lat="44.39011" lon="4.08688">
        <ele>599.475</ele>
        <time>2021-01-11T12:25:43Z</time>
      </trkpt>
      <trkpt lat="44.39042" lon="4.08593">
        <ele>596.828</ele>
        <time>2021-01-11T12:26:03Z</time>
      </trkpt>
      <trkpt lat="44.39048" lon="4.0855">
        <ele>590.62</ele>
        <time>2021-01-11T12:26:23Z</time>
      </trkpt>
      <trkpt lat="44.39146" lon="4.08447">
        <ele>607.408</ele>
        <time>2021-01-11T12:26:43Z</time>
      </trkpt>
      <trkpt lat="44.39152" lon="4.08422">
        <ele>610.443</ele>
        <time>2021-01-11T12:27:03Z</time>
      </trkpt>
      <trkpt lat="44.39134" lon="4.08379">
        <ele>610.39</ele>
        <time>2021-01-11T12:27:23Z</time>
      </trkpt>
      <trkpt lat="44.39085" lon="4.08344">
        <ele>596.384</ele>
        <time>2021-01-11T12:27:43Z</time>
      </trkpt>
      <trkpt lat="44.39079" lon="4.08301">
        <ele>598.954</ele>
        <time>2021-01-11T12:28:03Z</time>
      </trkpt>
      <trkpt lat="44.39146" lon="4.08147">
        <ele>606.583</ele>
        <time>2021-01-11T12:28:23Z</time>
      </trkpt>
      <trkpt lat="44.39202" lon="4.08095">
        <ele>612.365</ele>
        <time>2021-01-11T12:28:43Z</time>
      </trkpt>
      <trkpt lat="44.3922" lon="4.08078">
        <ele>610.767</ele>
        <time>2021-01-11T12:29:03Z</time>
      </trkpt>
      <trkpt lat="44.39306" lon="4.08078">
        <ele>624.729</ele>
        <time>2021-01-11T12:29:23Z</time>
      </trkpt>
      <trkpt lat="44.39349" lon="4.0801">
        <ele>624.821</ele>
        <time>2021-01-11T12:29:43Z</time>
      </trkpt>
      <trkpt lat="44.39361" lon="4.08044">
        <ele>642.441</ele>
        <time>2021-01-11T12:30:03Z</time>
      </trkpt>
      <trkpt lat="44.39367" lon="4.08035">
        <ele>643.705</ele>
        <time>2021-01-11T12:30:23Z</time>
      </trkpt>
      <trkpt lat="44.39386" lon="4.07984">
        <ele>643.508</ele>
        <time>2021-01-11T12:30:43Z</time>
      </trkpt>
      <trkpt lat="44.39379" lon="4.07932">
        <ele>635.698</ele>
        <time>2021-01-11T12:31:03Z</time>
      </trkpt>
      <trkpt lat="44.39386" lon="4.07898">
        <ele>638.725</ele>
        <time>2021-01-11T12:31:23Z</time>
      </trkpt>
      <trkpt lat="44.39373" lon="4.07847">
        <ele>631.589</ele>
        <time>2021-01-11T12:31:43Z</time>
      </trkpt>
      <trkpt lat="44.39398" lon="4.07769">
        <ele>630.369</ele>
        <time>2021-01-11T12:32:03Z</time>
      </trkpt>
      <trkpt lat="44.39496" lon="4.07786">
        <ele>644.428</ele>
        <time>2021-01-11T12:32:23Z</time>
      </trkpt>
      <trkpt lat="44.39422" lon="4.07829">
        <ele>654.33</ele>
        <time>2021-01-11T12:32:43Z</time>
      </trkpt>
      <trkpt lat="44.39447" lon="4.0795">
        <ele>674.642</ele>
        <time>2021-01-11T12:33:03Z</time>
      </trkpt>
      <trkpt lat="44.39441" lon="4.08044">
        <ele>689.324</ele>
        <time>2021-01-11T12:33:23Z</time>
      </trkpt>
      <trkpt lat="44.39379" lon="4.08198">
        <ele>702.167</ele>
        <time>2021-01-11T12:33:43Z</time>
      </trkpt>
      <trkpt lat="44.39312" lon="4.08259">
        <ele>698.981</ele>
        <time>2021-01-11T12:34:03Z</time>
      </trkpt>
      <trkpt lat="44.393" lon="4.08293">
        <ele>704.519</ele>
        <time>2021-01-11T12:34:23Z</time>
      </trkpt>
      <trkpt lat="44.39318" lon="4.08336">
        <ele>709.408</ele>
        <time>2021-01-11T12:34:43Z</time>
      </trkpt>
      <trkpt lat="44.39398" lon="4.08387">
        <ele>743.182</ele>
        <time>2021-01-11T12:35:03Z</time>
      </trkpt>
      <trkpt lat="44.39392" lon="4.08447">
        <ele>750.019</ele>
        <time>2021-01-11T12:35:23Z</time>
      </trkpt>
      <trkpt lat="44.39367" lon="4.08465">
        <ele>740.123</ele>
        <time>2021-01-11T12:35:43Z</time>
      </trkpt>
      <trkpt lat="44.39373" lon="4.08679">
        <ele>774.683</ele>
        <time>2021-01-11T12:36:03Z</time>
      </trkpt>
      <trkpt lat="44.3949" lon="4.08568">
        <ele>817.252</ele>
        <time>2021-01-11T12:36:23Z</time>
      </trkpt>
      <trkpt lat="44.39557" lon="4.08525">
        <ele>844.594</ele>
        <time>2021-01-11T12:36:43Z</time>
      </trkpt>
      <trkpt lat="44.39588" lon="4.08533">
        <ele>856.266</ele>
        <time>2021-01-11T12:37:03Z</time>
      </trkpt>
      <trkpt lat="44.39662" lon="4.08473">
        <ele>883.098</ele>
        <time>2021-01-11T12:37:23Z</time>
      </trkpt>
      <trkpt lat="44.39674" lon="4.08465">
        <ele>886.456</ele>
        <time>2021-01-11T12:37:43Z</time>
      </trkpt>
      <trkpt lat="44.39655" lon="4.08344">
        <ele>883.159</ele>
        <time>2021-01-11T12:38:03Z</time>
      </trkpt>
      <trkpt lat="44.39686" lon="4.08284">
        <ele>886.014</ele>
        <time>2021-01-11T12:38:23Z</time>
      </trkpt>
      <trkpt lat="44.39796" lon="4.08181">
        <ele>878.008</ele>
        <time>2021-01-11T12:38:43Z</time>
      </trkpt>
      <trkpt lat="44.39839" lon="4.08104">
        <ele>871.711</ele>
        <time>2021-01-11T12:39:03Z</time>
      </trkpt>
      <trkpt lat="44.39852" lon="4.08027">
        <ele>861.078</ele>
        <time>2021-01-11T12:39:23Z</time>
      </trkpt>
      <trkpt lat="44.3987" lon="4.08001">
        <ele>862.782</ele>
        <time>2021-01-11T12:39:43Z</time>
      </trkpt>
      <trkpt lat="44.39882" lon="4.07898">
        <ele>847.642</ele>
        <time>2021-01-11T12:40:03Z</time>
      </trkpt>
      <trkpt lat="44.39931" lon="4.07881">
        <ele>863.511</ele>
        <time>2021-01-11T12:40:23Z</time>
      </trkpt>
      <trkpt lat="44.39962" lon="4.07829">
        <ele>856.943</ele>
        <time>2021-01-11T12:40:43Z</time>
      </trkpt>
      <trkpt lat="44.40005" lon="4.07769">
        <ele>846.665</ele>
        <time>2021-01-11T12:41:03Z</time>
      </trkpt>
      <trkpt lat="44.40085" lon="4.07718">
        <ele>844.527</ele>
        <time>2021-01-11T12:41:23Z</time>
      </trkpt>
      <trkpt lat="44.40115" lon="4.07641">
        <ele>836.885</ele>
        <time>2021-01-11T12:41:43Z</time>
      </trkpt>
      <trkpt lat="44.40177" lon="4.07572">
        <ele>840.089</ele>
        <time>2021-01-11T12:42:03Z</time>
      </trkpt>
      <trkpt lat="44.40232" lon="4.07477">
        <ele>853.917</ele>
        <time>2021-01-11T12:42:23Z</time>
      </trkpt>
      <trkpt lat="44.40244" lon="4.07409">
        <ele>857.808</ele>
        <time>2021-01-11T12:42:43Z</time>
      </trkpt>
      <trkpt lat="44.40213" lon="4.07271">
        <ele>874.744</ele>
        <time>2021-01-11T12:43:03Z</time>
      </trkpt>
      <trkpt lat="44.40226" lon="4.0722">
        <ele>882.741</ele>
        <time>2021-01-11T12:43:23Z</time>
      </trkpt>
      <trkpt lat="44.40256" lon="4.07186">
        <ele>879.785</ele>
        <time>2021-01-11T12:43:43Z</time>
      </trkpt>
      <trkpt lat="44.40318" lon="4.07168">
        <ele>869.475</ele>
        <time>2021-01-11T12:44:03Z</time>
      </trkpt>
      <trkpt lat="44.40385" lon="4.07083">
        <ele>865.934</ele>
        <time>2021-01-11T12:44:23Z</time>
      </trkpt>
      <trkpt lat="44.40373" lon="4.07065">
        <ele>861.216</ele>
        <time>2021-01-11T12:44:43Z</time>
      </trkpt>
      <trkpt lat="44.40373" lon="4.0704">
        <ele>850.288</ele>
        <time>2021-01-11T12:45:03Z</time>
      </trkpt>
      <trkpt lat="44.40385" lon="4.07005">
        <ele>836.58</ele>
        <time>2021-01-11T12:45:23Z</time>
      </trkpt>
      <trkpt lat="44.40404" lon="4.06971">
        <ele>830.176</ele>
        <time>2021-01-11T12:45:43Z</time>
      </trkpt>
      <trkpt lat="44.40471" lon="4.06902">
        <ele>836.99</ele>
        <time>2021-01-11T12:46:03Z</time>
      </trkpt>
      <trkpt lat="44.40514" lon="4.06825">
        <ele>843.119</ele>
        <time>2021-01-11T12:46:23Z</time>
      </trkpt>
      <trkpt lat="44.40563" lon="4.06696">
        <ele>825.108</ele>
        <time>2021-01-11T12:46:43Z</time>
      </trkpt>
      <trkpt lat="44.40581" lon="4.06671">
        <ele>820.483</ele>
        <time>2021-01-11T12:47:03Z</time>
      </trkpt>
      <trkpt lat="44.4063" lon="4.06576">
        <ele>798.23</ele>
        <time>2021-01-11T12:47:23Z</time>
      </trkpt>
      <trkpt lat="44.40704" lon="4.06542">
        <ele>783.314</ele>
        <time>2021-01-11T12:47:43Z</time>
      </trkpt>
      <trkpt lat="44.40821" lon="4.06413">
        <ele>792.284</ele>
        <time>2021-01-11T12:48:03Z</time>
      </trkpt>
      <trkpt lat="44.40882" lon="4.06293">
        <ele>799.763</ele>
        <time>2021-01-11T12:48:23Z</time>
      </trkpt>
      <trkpt lat="44.40906" lon="4.0613">
        <ele>806.555</ele>
        <time>2021-01-11T12:48:43Z</time>
      </trkpt>
      <trkpt lat="44.40925" lon="4.06104">
        <ele>808.137</ele>
        <time>2021-01-11T12:49:03Z</time>
      </trkpt>
      <trkpt lat="44.41023" lon="4.06044">
        <ele>809.719</ele>
        <time>2021-01-11T12:49:23Z</time>
      </trkpt>
      <trkpt lat="44.41182" lon="4.05915">
        <ele>858.171</ele>
        <time>2021-01-11T12:49:43Z</time>
      </trkpt>
      <trkpt lat="44.41213" lon="4.05907">
        <ele>866.041</ele>
        <time>2021-01-11T12:50:03Z</time>
      </trkpt>
      <trkpt lat="44.41256" lon="4.05847">
        <ele>884.415</ele>
        <time>2021-01-11T12:50:23Z</time>
      </trkpt>
      <trkpt lat="44.41354" lon="4.05744">
        <ele>884.608</ele>
        <time>2021-01-11T12:50:43Z</time>
      </trkpt>
      <trkpt lat="44.41458" lon="4.05521">
        <ele>866.583</ele>
        <time>2021-01-11T12:51:03Z</time>
      </trkpt>
      <trkpt lat="44.41519" lon="4.05315">
        <ele>878.41</ele>
        <time>2021-01-11T12:51:23Z</time>
      </trkpt>
      <trkpt lat="44.41556" lon="4.05237">
        <ele>871.664</ele>
        <time>2021-01-11T12:51:43Z</time>
      </trkpt>
      <trkpt lat="44.4163" lon="4.05151">
        <ele>865.544</ele>
        <time>2021-01-11T12:52:03Z</time>
      </trkpt>
      <trkpt lat="44.4171" lon="4.04937">
        <ele>877.143</ele>
        <time>2021-01-11T12:52:23Z</time>
      </trkpt>
      <trkpt lat="44.41808" lon="4.04782">
        <ele>874.685</ele>
        <time>2021-01-11T12:52:43Z</time>
      </trkpt>
      <trkpt lat="44.41838" lon="4.04662">
        <ele>870.587</ele>
        <time>2021-01-11T12:53:03Z</time>
      </trkpt>
      <trkpt lat="44.41832" lon="4.04559">
        <ele>877.719</ele>
        <time>2021-01-11T12:53:23Z</time>
      </trkpt>
      <trkpt lat="44.41814" lon="4.04525">
        <ele>886.211</ele>
        <time>2021-01-11T12:53:43Z</time>
      </trkpt>
      <trkpt lat="44.41734" lon="4.04491">
        <ele>889.921</ele>
        <time>2021-01-11T12:54:03Z</time>
      </trkpt>
      <trkpt lat="44.41673" lon="4.04413">
        <ele>899.703</ele>
        <time>2021-01-11T12:54:23Z</time>
      </trkpt>
      <trkpt lat="44.41581" lon="4.04422">
        <ele>896.408</ele>
        <time>2021-01-11T12:54:43Z</time>
      </trkpt>
      <trkpt lat="44.41575" lon="4.04413">
        <ele>896.627</ele>
        <time>2021-01-11T12:55:03Z</time>
      </trkpt>
      <trkpt lat="44.41624" lon="4.0431">
        <ele>898.784</ele>
        <time>2021-01-11T12:55:23Z</time>
      </trkpt>
      <trkpt lat="44.41667" lon="4.0413">
        <ele>903.948</ele>
        <time>2021-01-11T12:55:43Z</time>
      </trkpt>
      <trkpt lat="44.41667" lon="4.04053">
        <ele>906.388</ele>
        <time>2021-01-11T12:56:03Z</time>
      </trkpt>
      <trkpt lat="44.41654" lon="4.04019">
        <ele>904.657</ele>
        <time>2021-01-11T12:56:23Z</time>
      </trkpt>
      <trkpt lat="44.41581" lon="4.0389">
        <ele>898.149</ele>
        <time>2021-01-11T12:56:43Z</time>
      </trkpt>
      <trkpt lat="44.41568" lon="4.03855">
        <ele>895.181</ele>
        <time>2021-01-11T12:57:03Z</time>
      </trkpt>
      <trkpt lat="44.41575" lon="4.03795">
        <ele>893.873</ele>
        <time>2021-01-11T12:57:23Z</time>
      </trkpt>
      <trkpt lat="44.41624" lon="4.03752">
        <ele>892.069</ele>
        <time>2021-01-11T12:57:43Z</time>
      </trkpt>
      <trkpt lat="44.41801" lon="4.03641">
        <ele>888.104</ele>
        <time>2021-01-11T12:58:03Z</time>
      </trkpt>
      <trkpt lat="44.41851" lon="4.03581">
        <ele>887.124</ele>
        <time>2021-01-11T12:58:23Z</time>
      </trkpt>
      <trkpt lat="44.41881" lon="4.03495">
        <ele>879.108</ele>
        <time>2021-01-11T12:58:43Z</time>
      </trkpt>
      <trkpt lat="44.419" lon="4.03478">
        <ele>879.392</ele>
        <time>2021-01-11T12:59:03Z</time>
      </trkpt>
      <trkpt lat="44.42004" lon="4.03478">
        <ele>878.489</ele>
        <time>2021-01-11T12:59:23Z</time>
      </trkpt>
      <trkpt lat="44.42034" lon="4.03461">
        <ele>875.073</ele>
        <time>2021-01-11T12:59:43Z</time>
      </trkpt>
      <trkpt lat="44.42071" lon="4.03409">
        <ele>875.133</ele>
        <time>2021-01-11T13:00:03Z</time>
      </trkpt>
      <trkpt lat="44.42108" lon="4.03401">
        <ele>876.412</ele>
        <time>2021-01-11T13:00:23Z</time>
      </trkpt>
      <trkpt lat="44.42188" lon="4.0334">
        <ele>872.884</ele>
        <time>2021-01-11T13:00:43Z</time>
      </trkpt>
      <trkpt lat="44.42231" lon="4.0322">
        <ele>879.526</ele>
        <time>2021-01-11T13:01:03Z</time>
      </trkpt>
      <trkpt lat="44.42273" lon="4.03177">
        <ele>881.618</ele>
        <time>2021-01-11T13:01:23Z</time>
      </trkpt>
      <trkpt lat="44.42341" lon="4.03169">
        <ele>874.287</ele>
        <time>2021-01-11T13:01:43Z</time>
      </trkpt>
      <trkpt lat="44.4239" lon="4.03057">
        <ele>884.442</ele>
        <time>2021-01-11T13:02:03Z</time>
      </trkpt>
      <trkpt lat="44.42482" lon="4.02946">
        <ele>868.426</ele>
        <time>2021-01-11T13:02:23Z</time>
      </trkpt>
      <trkpt lat="44.42494" lon="4.0286">
        <ele>869.608</ele>
        <time>2021-01-11T13:02:43Z</time>
      </trkpt>
      <trkpt lat="44.425" lon="4.0274">
        <ele>876.044</ele>
        <time>2021-01-11T13:03:03Z</time>
      </trkpt>
      <trkpt lat="44.42549" lon="4.02637">
        <ele>867.841</ele>
        <time>2021-01-11T13:03:23Z</time>
      </trkpt>
      <trkpt lat="44.42592" lon="4.02465">
        <ele>866.125</ele>
        <time>2021-01-11T13:03:43Z</time>
      </trkpt>
      <trkpt lat="44.42623" lon="4.02388">
        <ele>860.275</ele>
        <time>2021-01-11T13:04:03Z</time>
      </trkpt>
      <trkpt lat="44.4266" lon="4.02328">
        <ele>859.214</ele>
        <time>2021-01-11T13:04:23Z</time>
      </trkpt>
      <trkpt lat="44.42752" lon="4.02293">
        <ele>854.186</ele>
        <time>2021-01-11T13:04:43Z</time>
      </trkpt>
      <trkpt lat="44.42807" lon="4.0225">
        <ele>851.648</ele>
        <time>2021-01-11T13:05:03Z</time>
      </trkpt>
      <trkpt lat="44.4285" lon="4.02173">
        <ele>853.19</ele>
        <time>2021-01-11T13:05:23Z</time>
      </trkpt>
      <trkpt lat="44.42874" lon="4.02096">
        <ele>851.874</ele>
        <time>2021-01-11T13:05:43Z</time>
      </trkpt>
      <trkpt lat="44.4288" lon="4.0201">
        <ele>855.156</ele>
        <time>2021-01-11T13:06:03Z</time>
      </trkpt>
      <trkpt lat="44.42862" lon="4.01864">
        <ele>853.121</ele>
        <time>2021-01-11T13:06:23Z</time>
      </trkpt>
      <trkpt lat="44.42819" lon="4.01744">
        <ele>858.208</ele>
        <time>2021-01-11T13:06:43Z</time>
      </trkpt>
      <trkpt lat="44.4285" lon="4.01555">
        <ele>872.823</ele>
        <time>2021-01-11T13:07:03Z</time>
      </trkpt>
      <trkpt lat="44.42776" lon="4.01358">
        <ele>865.59</ele>
        <time>2021-01-11T13:07:23Z</time>
      </trkpt>
      <trkpt lat="44.42788" lon="4.01298">
        <ele>864.454</ele>
        <time>2021-01-11T13:07:43Z</time>
      </trkpt>
      <trkpt lat="44.42764" lon="4.01229">
        <ele>867.914</ele>
        <time>2021-01-11T13:08:03Z</time>
      </trkpt>
      <trkpt lat="44.42752" lon="4.01117">
        <ele>870.923</ele>
        <time>2021-01-11T13:08:23Z</time>
      </trkpt>
      <trkpt lat="44.42739" lon="4.00989">
        <ele>871.815</ele>
        <time>2021-01-11T13:08:43Z</time>
      </trkpt>
      <trkpt lat="44.42739" lon="4.00791">
        <ele>880.727</ele>
        <time>2021-01-11T13:09:03Z</time>
      </trkpt>
      <trkpt lat="44.42727" lon="4.00671">
        <ele>889.579</ele>
        <time>2021-01-11T13:09:23Z</time>
      </trkpt>
      <trkpt lat="44.42727" lon="4.0056">
        <ele>899.766</ele>
        <time>2021-01-11T13:09:43Z</time>
      </trkpt>
      <trkpt lat="44.42739" lon="4.00491">
        <ele>897.129</ele>
        <time>2021-01-11T13:10:03Z</time>
      </trkpt>
      <trkpt lat="44.42819" lon="4.00233">
        <ele>862.821</ele>
        <time>2021-01-11T13:10:23Z</time>
      </trkpt>
      <trkpt lat="44.42825" lon="4.00165">
        <ele>858.508</ele>
        <time>2021-01-11T13:10:43Z</time>
      </trkpt>
      <trkpt lat="44.42813" lon="4.00148">
        <ele>855.822</ele>
        <time>2021-01-11T13:11:03Z</time>
      </trkpt>
      <trkpt lat="44.42776" lon="4.00139">
        <ele>844.339</ele>
        <time>2021-01-11T13:11:23Z</time>
      </trkpt>
      <trkpt lat="44.42654" lon="4.00276">
        <ele>822.933</ele>
        <time>2021-01-11T13:11:43Z</time>
      </trkpt>
      <trkpt lat="44.42617" lon="4.00293">
        <ele>820.513</ele>
        <time>2021-01-11T13:12:03Z</time>
      </trkpt>
      <trkpt lat="44.42647" lon="4.00251">
        <ele>815.682</ele>
        <time>2021-01-11T13:12:23Z</time>
      </trkpt>
      <trkpt lat="44.42709" lon="4.00027">
        <ele>809.134</ele>
        <time>2021-01-11T13:12:43Z</time>
      </trkpt>
      <trkpt lat="44.42703" lon="3.99899">
        <ele>808.886</ele>
        <time>2021-01-11T13:13:03Z</time>
      </trkpt>
      <trkpt lat="44.42727" lon="3.99736">
        <ele>821.828</ele>
        <time>2021-01-11T13:13:23Z</time>
      </trkpt>
      <trkpt lat="44.42739" lon="3.99667">
        <ele>830.486</ele>
        <time>2021-01-11T13:13:43Z</time>
      </trkpt>
      <trkpt lat="44.42727" lon="3.99469">
        <ele>826.76</ele>
        <time>2021-01-11T13:14:03Z</time>
      </trkpt>
      <trkpt lat="44.42788" lon="3.99427">
        <ele>833.526</ele>
        <time>2021-01-11T13:14:23Z</time>
      </trkpt>
      <trkpt lat="44.4288" lon="3.99324">
        <ele>838.908</ele>
        <time>2021-01-11T13:14:43Z</time>
      </trkpt>
      <trkpt lat="44.42942" lon="3.99066">
        <ele>835.254</ele>
        <time>2021-01-11T13:15:03Z</time>
      </trkpt>
      <trkpt lat="44.42942" lon="3.98954">
        <ele>837.571</ele>
        <time>2021-01-11T13:15:23Z</time>
      </trkpt>
      <trkpt lat="44.42966" lon="3.9892">
        <ele>845.455</ele>
        <time>2021-01-11T13:15:43Z</time>
      </trkpt>
      <trkpt lat="44.43009" lon="3.9892">
        <ele>849.765</ele>
        <time>2021-01-11T13:16:03Z</time>
      </trkpt>
      <trkpt lat="44.42991" lon="3.98877">
        <ele>848.274</ele>
        <time>2021-01-11T13:16:23Z</time>
      </trkpt>
      <trkpt lat="44.42991" lon="3.98809">
        <ele>852.536</ele>
        <time>2021-01-11T13:16:43Z</time>
      </trkpt>
      <trkpt lat="44.4296" lon="3.98748">
        <ele>849.568</ele>
        <time>2021-01-11T13:17:03Z</time>
      </trkpt>
      <trkpt lat="44.4296" lon="3.98688">
        <ele>854.04</ele>
        <time>2021-01-11T13:17:23Z</time>
      </trkpt>
      <trkpt lat="44.42972" lon="3.98663">
        <ele>858.934</ele>
        <time>2021-01-11T13:17:43Z</time>
      </trkpt>
      <trkpt lat="44.43009" lon="3.98663">
        <ele>862.955</ele>
        <time>2021-01-11T13:18:03Z</time>
      </trkpt>
      <trkpt lat="44.43027" lon="3.98637">
        <ele>870.41</ele>
        <time>2021-01-11T13:18:23Z</time>
      </trkpt>
      <trkpt lat="44.43064" lon="3.98491">
        <ele>880.808</ele>
        <time>2021-01-11T13:18:43Z</time>
      </trkpt>
      <trkpt lat="44.43119" lon="3.98216">
        <ele>882.569</ele>
        <time>2021-01-11T13:19:03Z</time>
      </trkpt>
      <trkpt lat="44.4315" lon="3.98122">
        <ele>885.816</ele>
        <time>2021-01-11T13:19:23Z</time>
      </trkpt>
      <trkpt lat="44.4315" lon="3.97942">
        <ele>876.66</ele>
        <time>2021-01-11T13:19:43Z</time>
      </trkpt>
      <trkpt lat="44.43107" lon="3.97813">
        <ele>861.59</ele>
        <time>2021-01-11T13:20:03Z</time>
      </trkpt>
      <trkpt lat="44.43046" lon="3.9771">
        <ele>864.319</ele>
        <time>2021-01-11T13:20:23Z</time>
      </trkpt>
      <trkpt lat="44.43009" lon="3.97573">
        <ele>853.541</ele>
        <time>2021-01-11T13:20:43Z</time>
      </trkpt>
      <trkpt lat="44.42966" lon="3.97513">
        <ele>858.843</ele>
        <time>2021-01-11T13:21:03Z</time>
      </trkpt>
      <trkpt lat="44.42985" lon="3.9741">
        <ele>846.495</ele>
        <time>2021-01-11T13:21:23Z</time>
      </trkpt>
      <trkpt lat="44.43015" lon="3.97349">
        <ele>838.096</ele>
        <time>2021-01-11T13:21:43Z</time>
      </trkpt>
      <trkpt lat="44.43009" lon="3.97298">
        <ele>838.531</ele>
        <time>2021-01-11T13:22:03Z</time>
      </trkpt>
      <trkpt lat="44.42923" lon="3.97186">
        <ele>843.624</ele>
        <time>2021-01-11T13:22:23Z</time>
      </trkpt>
      <trkpt lat="44.42972" lon="3.97049">
        <ele>837.208</ele>
        <time>2021-01-11T13:22:43Z</time>
      </trkpt>
      <trkpt lat="44.43003" lon="3.96937">
        <ele>848.325</ele>
        <time>2021-01-11T13:23:03Z</time>
      </trkpt>
      <trkpt lat="44.43034" lon="3.9692">
        <ele>845.312</ele>
        <time>2021-01-11T13:23:23Z</time>
      </trkpt>
      <trkpt lat="44.4304" lon="3.96895">
        <ele>848.756</ele>
        <time>2021-01-11T13:23:43Z</time>
      </trkpt>
      <trkpt lat="44.43027" lon="3.9686">
        <ele>858.216</ele>
        <time>2021-01-11T13:24:03Z</time>
      </trkpt>
      <trkpt lat="44.43034" lon="3.968">
        <ele>857.755</ele>
        <time>2021-01-11T13:24:23Z</time>
      </trkpt>
      <trkpt lat="44.43021" lon="3.9668">
        <ele>855.817</ele>
        <time>2021-01-11T13:24:43Z</time>
      </trkpt>
      <trkpt lat="44.42978" lon="3.96517">
        <ele>860.529</ele>
        <time>2021-01-11T13:25:03Z</time>
      </trkpt>
      <trkpt lat="44.42966" lon="3.96345">
        <ele>852.261</ele>
        <time>2021-01-11T13:25:23Z</time>
      </trkpt>
      <trkpt lat="44.42929" lon="3.96234">
        <ele>847.024</ele>
        <time>2021-01-11T13:25:43Z</time>
      </trkpt>
      <trkpt lat="44.4296" lon="3.96148">
        <ele>843.704</ele>
        <time>2021-01-11T13:26:03Z</time>
      </trkpt>
      <trkpt lat="44.4296" lon="3.96019">
        <ele>837.914</ele>
        <time>2021-01-11T13:26:23Z</time>
      </trkpt>
      <trkpt lat="44.43027" lon="3.95847">
        <ele>828.108</ele>
        <time>2021-01-11T13:26:43Z</time>
      </trkpt>
      <trkpt lat="44.43027" lon="3.95813">
        <ele>827.488</ele>
        <time>2021-01-11T13:27:03Z</time>
      </trkpt>
      <trkpt lat="44.43009" lon="3.95744">
        <ele>833.095</ele>
        <time>2021-01-11T13:27:23Z</time>
      </trkpt>
      <trkpt lat="44.43027" lon="3.95676">
        <ele>821.779</ele>
        <time>2021-01-11T13:27:43Z</time>
      </trkpt>
      <trkpt lat="44.43021" lon="3.9565">
        <ele>819.339</ele>
        <time>2021-01-11T13:28:03Z</time>
      </trkpt>
      <trkpt lat="44.42991" lon="3.95624">
        <ele>814.478</ele>
        <time>2021-01-11T13:28:23Z</time>
      </trkpt>
      <trkpt lat="44.42997" lon="3.95599">
        <ele>806.29</ele>
        <time>2021-01-11T13:28:43Z</time>
      </trkpt>
      <trkpt lat="44.43034" lon="3.95599">
        <ele>805.582</ele>
        <time>2021-01-11T13:29:03Z</time>
      </trkpt>
      <trkpt lat="44.43113" lon="3.95538">
        <ele>800.674</ele>
        <time>2021-01-11T13:29:23Z</time>
      </trkpt>
      <trkpt lat="44.43156" lon="3.95461">
        <ele>801.969</ele>
        <time>2021-01-11T13:29:43Z</time>
      </trkpt>
      <trkpt lat="44.43242" lon="3.95281">
        <ele>815.004</ele>
        <time>2021-01-11T13:30:03Z</time>
      </trkpt>
      <trkpt lat="44.43236" lon="3.95212">
        <ele>809.124</ele>
        <time>2021-01-11T13:30:23Z</time>
      </trkpt>
      <trkpt lat="44.43279" lon="3.95041">
        <ele>814.008</ele>
        <time>2021-01-11T13:30:43Z</time>
      </trkpt>
      <trkpt lat="44.43242" lon="3.94869">
        <ele>820.752</ele>
        <time>2021-01-11T13:31:03Z</time>
      </trkpt>
      <trkpt lat="44.43211" lon="3.94835">
        <ele>817.829</ele>
        <time>2021-01-11T13:31:23Z</time>
      </trkpt>
      <trkpt lat="44.43193" lon="3.94792">
        <ele>817.033</ele>
        <time>2021-01-11T13:31:43Z</time>
      </trkpt>
      <trkpt lat="44.43193" lon="3.94766">
        <ele>820.483</ele>
        <time>2021-01-11T13:32:03Z</time>
      </trkpt>
      <trkpt lat="44.43132" lon="3.94749">
        <ele>807.382</ele>
        <time>2021-01-11T13:32:23Z</time>
      </trkpt>
      <trkpt lat="44.43095" lon="3.94672">
        <ele>806.784</ele>
        <time>2021-01-11T13:32:43Z</time>
      </trkpt>
      <trkpt lat="44.43076" lon="3.94663">
        <ele>804.266</ele>
        <time>2021-01-11T13:33:03Z</time>
      </trkpt>
      <trkpt lat="44.42985" lon="3.94637">
        <ele>801.478</ele>
        <time>2021-01-11T13:33:23Z</time>
      </trkpt>
      <trkpt lat="44.42972" lon="3.9462">
        <ele>800.047</ele>
        <time>2021-01-11T13:33:43Z</time>
      </trkpt>
      <trkpt lat="44.4296" lon="3.94577">
        <ele>794.729</ele>
        <time>2021-01-11T13:34:03Z</time>
      </trkpt>
      <trkpt lat="44.4296" lon="3.94491">
        <ele>786.221</ele>
        <time>2021-01-11T13:34:23Z</time>
      </trkpt>
      <trkpt lat="44.43003" lon="3.94337">
        <ele>779.108</ele>
        <time>2021-01-11T13:34:43Z</time>
      </trkpt>
      <trkpt lat="44.42997" lon="3.94302">
        <ele>774.05</ele>
        <time>2021-01-11T13:35:03Z</time>
      </trkpt>
      <trkpt lat="44.42972" lon="3.94268">
        <ele>760.337</ele>
        <time>2021-01-11T13:35:23Z</time>
      </trkpt>
      <trkpt lat="44.4296" lon="3.94217">
        <ele>754.621</ele>
        <time>2021-01-11T13:35:43Z</time>
      </trkpt>
      <trkpt lat="44.42972" lon="3.94105">
        <ele>743.751</ele>
        <time>2021-01-11T13:36:03Z</time>
      </trkpt>
      <trkpt lat="44.43003" lon="3.94071">
        <ele>742.88</ele>
        <time>2021-01-11T13:36:23Z</time>
      </trkpt>
      <trkpt lat="44.43027" lon="3.94071">
        <ele>741.782</ele>
        <time>2021-01-11T13:36:43Z</time>
      </trkpt>
      <trkpt lat="44.43119" lon="3.94165">
        <ele>734.664</ele>
        <time>2021-01-11T13:37:03Z</time>
      </trkpt>
      <trkpt lat="44.43162" lon="3.94165">
        <ele>725.486</ele>
        <time>2021-01-11T13:37:23Z</time>
      </trkpt>
      <trkpt lat="44.43162" lon="3.94148">
        <ele>721.277</ele>
        <time>2021-01-11T13:37:43Z</time>
      </trkpt>
      <trkpt lat="44.43113" lon="3.94114">
        <ele>724.961</ele>
        <time>2021-01-11T13:38:03Z</time>
      </trkpt>
      <trkpt lat="44.43064" lon="3.93959">
        <ele>704.927</ele>
        <time>2021-01-11T13:38:23Z</time>
      </trkpt>
      <trkpt lat="44.4307" lon="3.93848">
        <ele>680.708</ele>
        <time>2021-01-11T13:38:43Z</time>
      </trkpt>
      <trkpt lat="44.43162" lon="3.93787">
        <ele>696.583</ele>
        <time>2021-01-11T13:39:03Z</time>
      </trkpt>
      <trkpt lat="44.43199" lon="3.93736">
        <ele>703.01</ele>
        <time>2021-01-11T13:39:23Z</time>
      </trkpt>
      <trkpt lat="44.43279" lon="3.93719">
        <ele>694.594</ele>
        <time>2021-01-11T13:39:43Z</time>
      </trkpt>
      <trkpt lat="44.43371" lon="3.9371">
        <ele>681.654</ele>
        <time>2021-01-11T13:40:03Z</time>
      </trkpt>
      <trkpt lat="44.43383" lon="3.93779">
        <ele>662.043</ele>
        <time>2021-01-11T13:40:23Z</time>
      </trkpt>
      <trkpt lat="44.43444" lon="3.93779">
        <ele>648.885</ele>
        <time>2021-01-11T13:40:43Z</time>
      </trkpt>
      <trkpt lat="44.43512" lon="3.93727">
        <ele>644.337</ele>
        <time>2021-01-11T13:41:03Z</time>
      </trkpt>
      <trkpt lat="44.43561" lon="3.93633">
        <ele>634.139</ele>
        <time>2021-01-11T13:41:23Z</time>
      </trkpt>
      <trkpt lat="44.43597" lon="3.93599">
        <ele>627.769</ele>
        <time>2021-01-11T13:41:43Z</time>
      </trkpt>
      <trkpt lat="44.4364" lon="3.93547">
        <ele>631.404</ele>
        <time>2021-01-11T13:42:03Z</time>
      </trkpt>
      <trkpt lat="44.43714" lon="3.9353">
        <ele>606.424</ele>
        <time>2021-01-11T13:42:23Z</time>
      </trkpt>
      <trkpt lat="44.43732" lon="3.93513">
        <ele>602.408</ele>
        <time>2021-01-11T13:42:43Z</time>
      </trkpt>
      <trkpt lat="44.43775" lon="3.93444">
        <ele>598.992</ele>
        <time>2021-01-11T13:43:03Z</time>
      </trkpt>
      <trkpt lat="44.43775" lon="3.93384">
        <ele>602.239</ele>
        <time>2021-01-11T13:43:23Z</time>
      </trkpt>
      <trkpt lat="44.43794" lon="3.93341">
        <ele>597.083</ele>
        <time>2021-01-11T13:43:43Z</time>
      </trkpt>
      <trkpt lat="44.43794" lon="3.93324">
        <ele>596.373</ele>
        <time>2021-01-11T13:44:03Z</time>
      </trkpt>
      <trkpt lat="44.43824" lon="3.93298">
        <ele>595.222</ele>
        <time>2021-01-11T13:44:23Z</time>
      </trkpt>
      <trkpt lat="44.43885" lon="3.93221">
        <ele>589.334</ele>
        <time>2021-01-11T13:44:43Z</time>
      </trkpt>
      <trkpt lat="44.44131" lon="3.93187">
        <ele>589.846</ele>
        <time>2021-01-11T13:45:03Z</time>
      </trkpt>
      <trkpt lat="44.44112" lon="3.93032">
        <ele>584.818</ele>
        <time>2021-01-11T13:45:23Z</time>
      </trkpt>
      <trkpt lat="44.44008" lon="3.9262">
        <ele>602.297</ele>
        <time>2021-01-11T13:45:43Z</time>
      </trkpt>
      <trkpt lat="44.44002" lon="3.92491">
        <ele>602.523</ele>
        <time>2021-01-11T13:46:03Z</time>
      </trkpt>
      <trkpt lat="44.43953" lon="3.92268">
        <ele>603.125</ele>
        <time>2021-01-11T13:46:23Z</time>
      </trkpt>
      <trkpt lat="44.43984" lon="3.9232">
        <ele>599.408</ele>
        <time>2021-01-11T13:46:43Z</time>
      </trkpt>
      <trkpt lat="44.4399" lon="3.92174">
        <ele>600.535</ele>
        <time>2021-01-11T13:47:03Z</time>
      </trkpt>
      <trkpt lat="44.44014" lon="3.92045">
        <ele>597.912</ele>
        <time>2021-01-11T13:47:23Z</time>
      </trkpt>
      <trkpt lat="44.43984" lon="3.91968">
        <ele>603.626</ele>
        <time>2021-01-11T13:47:43Z</time>
      </trkpt>
      <trkpt lat="44.43996" lon="3.91882">
        <ele>614.586</ele>
        <time>2021-01-11T13:48:03Z</time>
      </trkpt>
      <trkpt lat="44.44026" lon="3.91856">
        <ele>619.235</ele>
        <time>2021-01-11T13:48:23Z</time>
      </trkpt>
      <trkpt lat="44.44045" lon="3.91908">
        <ele>619.097</ele>
        <time>2021-01-11T13:48:43Z</time>
      </trkpt>
      <trkpt lat="44.44063" lon="3.91891">
        <ele>624.859</ele>
        <time>2021-01-11T13:49:03Z</time>
      </trkpt>
      <trkpt lat="44.44069" lon="3.91839">
        <ele>628.341</ele>
        <time>2021-01-11T13:49:23Z</time>
      </trkpt>
      <trkpt lat="44.44137" lon="3.91625">
        <ele>656.527</ele>
        <time>2021-01-11T13:49:43Z</time>
      </trkpt>
      <trkpt lat="44.44155" lon="3.9171">
        <ele>662.968</ele>
        <time>2021-01-11T13:50:03Z</time>
      </trkpt>
      <trkpt lat="44.44186" lon="3.91633">
        <ele>681.614</ele>
        <time>2021-01-11T13:50:23Z</time>
      </trkpt>
      <trkpt lat="44.44198" lon="3.91376">
        <ele>703.808</ele>
        <time>2021-01-11T13:50:43Z</time>
      </trkpt>
      <trkpt lat="44.44247" lon="3.91058">
        <ele>740.228</ele>
        <time>2021-01-11T13:51:03Z</time>
      </trkpt>
      <trkpt lat="44.44241" lon="3.91015">
        <ele>745.565</ele>
        <time>2021-01-11T13:51:23Z</time>
      </trkpt>
      <trkpt lat="44.44253" lon="3.90929">
        <ele>761.599</ele>
        <time>2021-01-11T13:51:43Z</time>
      </trkpt>
      <trkpt lat="44.44253" lon="3.90852">
        <ele>770.959</ele>
        <time>2021-01-11T13:52:03Z</time>
      </trkpt>
      <trkpt lat="44.44223" lon="3.9062">
        <ele>780.998</ele>
        <time>2021-01-11T13:52:23Z</time>
      </trkpt>
      <trkpt lat="44.44204" lon="3.90552">
        <ele>782.69</ele>
        <time>2021-01-11T13:52:43Z</time>
      </trkpt>
      <trkpt lat="44.44173" lon="3.90492">
        <ele>784.292</ele>
        <time>2021-01-11T13:53:03Z</time>
      </trkpt>
      <trkpt lat="44.44173" lon="3.90457">
        <ele>785.794</ele>
        <time>2021-01-11T13:53:23Z</time>
      </trkpt>
      <trkpt lat="44.44278" lon="3.90389">
        <ele>779.194</ele>
        <time>2021-01-11T13:53:43Z</time>
      </trkpt>
      <trkpt lat="44.44296" lon="3.90337">
        <ele>780.157</ele>
        <time>2021-01-11T13:54:03Z</time>
      </trkpt>
      <trkpt lat="44.4429" lon="3.90311">
        <ele>784.222</ele>
        <time>2021-01-11T13:54:23Z</time>
      </trkpt>
      <trkpt lat="44.44265" lon="3.90208">
        <ele>785.208</ele>
        <time>2021-01-11T13:54:43Z</time>
      </trkpt>
      <trkpt lat="44.44192" lon="3.90088">
        <ele>799.355</ele>
        <time>2021-01-11T13:55:03Z</time>
      </trkpt>
      <trkpt lat="44.4418" lon="3.89934">
        <ele>805.162</ele>
        <time>2021-01-11T13:55:23Z</time>
      </trkpt>
      <trkpt lat="44.44161" lon="3.89882">
        <ele>816.326</ele>
        <time>2021-01-11T13:55:43Z</time>
      </trkpt>
      <trkpt lat="44.44167" lon="3.89874">
        <ele>815.646</ele>
        <time>2021-01-11T13:56:03Z</time>
      </trkpt>
      <trkpt lat="44.44229" lon="3.89856">
        <ele>814.755</ele>
        <time>2021-01-11T13:56:23Z</time>
      </trkpt>
      <trkpt lat="44.44272" lon="3.89908">
        <ele>802.177</ele>
        <time>2021-01-11T13:56:43Z</time>
      </trkpt>
      <trkpt lat="44.4429" lon="3.89908">
        <ele>802.869</ele>
        <time>2021-01-11T13:57:03Z</time>
      </trkpt>
      <trkpt lat="44.44388" lon="3.89856">
        <ele>802.361</ele>
        <time>2021-01-11T13:57:23Z</time>
      </trkpt>
      <trkpt lat="44.44351" lon="3.89642">
        <ele>809.541</ele>
        <time>2021-01-11T13:57:43Z</time>
      </trkpt>
      <trkpt lat="44.44351" lon="3.89539">
        <ele>798.881</ele>
        <time>2021-01-11T13:58:03Z</time>
      </trkpt>
      <trkpt lat="44.44314" lon="3.89479">
        <ele>808.009</ele>
        <time>2021-01-11T13:58:23Z</time>
      </trkpt>
      <trkpt lat="44.44314" lon="3.89462">
        <ele>808.508</ele>
        <time>2021-01-11T13:58:43Z</time>
      </trkpt>
      <trkpt lat="44.44339" lon="3.89436">
        <ele>799.16</ele>
        <time>2021-01-11T13:59:03Z</time>
      </trkpt>
      <trkpt lat="44.44425" lon="3.89384">
        <ele>781.247</ele>
        <time>2021-01-11T13:59:23Z</time>
      </trkpt>
      <trkpt lat="44.44431" lon="3.89359">
        <ele>780.631</ele>
        <time>2021-01-11T13:59:43Z</time>
      </trkpt>
      <trkpt lat="44.44382" lon="3.89247">
        <ele>792.311</ele>
        <time>2021-01-11T14:00:03Z</time>
      </trkpt>
      <trkpt lat="44.44382" lon="3.89204">
        <ele>794.63</ele>
        <time>2021-01-11T14:00:23Z</time>
      </trkpt>
      <trkpt lat="44.4448" lon="3.8917">
        <ele>784.682</ele>
        <time>2021-01-11T14:00:43Z</time>
      </trkpt>
      <trkpt lat="44.44511" lon="3.89135">
        <ele>781.844</ele>
        <time>2021-01-11T14:01:03Z</time>
      </trkpt>
      <trkpt lat="44.44523" lon="3.89032">
        <ele>793.356</ele>
        <time>2021-01-11T14:01:23Z</time>
      </trkpt>
      <trkpt lat="44.44609" lon="3.88955">
        <ele>799.295</ele>
        <time>2021-01-11T14:01:43Z</time>
      </trkpt>
      <trkpt lat="44.44658" lon="3.88947">
        <ele>793.449</ele>
        <time>2021-01-11T14:02:03Z</time>
      </trkpt>
      <trkpt lat="44.44633" lon="3.88715">
        <ele>819.323</ele>
        <time>2021-01-11T14:02:23Z</time>
      </trkpt>
      <trkpt lat="44.44639" lon="3.88689">
        <ele>819.508</ele>
        <time>2021-01-11T14:02:43Z</time>
      </trkpt>
      <trkpt lat="44.44658" lon="3.88672">
        <ele>816.655</ele>
        <time>2021-01-11T14:03:03Z</time>
      </trkpt>
      <trkpt lat="44.44688" lon="3.88672">
        <ele>811.672</ele>
        <time>2021-01-11T14:03:23Z</time>
      </trkpt>
      <trkpt lat="44.447" lon="3.88629">
        <ele>812.366</ele>
        <time>2021-01-11T14:03:43Z</time>
      </trkpt>
      <trkpt lat="44.44688" lon="3.88586">
        <ele>808.916</ele>
        <time>2021-01-11T14:04:03Z</time>
      </trkpt>
      <trkpt lat="44.44627" lon="3.8856">
        <ele>814.675</ele>
        <time>2021-01-11T14:04:23Z</time>
      </trkpt>
      <trkpt lat="44.4456" lon="3.88483">
        <ele>809.677</ele>
        <time>2021-01-11T14:04:43Z</time>
      </trkpt>
      <trkpt lat="44.44492" lon="3.88449">
        <ele>811.599</ele>
        <time>2021-01-11T14:05:03Z</time>
      </trkpt>
      <trkpt lat="44.44443" lon="3.8844">
        <ele>819.891</ele>
        <time>2021-01-11T14:05:23Z</time>
      </trkpt>
      <trkpt lat="44.44382" lon="3.88389">
        <ele>829.894</ele>
        <time>2021-01-11T14:05:43Z</time>
      </trkpt>
      <trkpt lat="44.44382" lon="3.88363">
        <ele>829.157</ele>
        <time>2021-01-11T14:06:03Z</time>
      </trkpt>
      <trkpt lat="44.44412" lon="3.88346">
        <ele>827.922</ele>
        <time>2021-01-11T14:06:23Z</time>
      </trkpt>
      <trkpt lat="44.44455" lon="3.88354">
        <ele>817.508</ele>
        <time>2021-01-11T14:06:43Z</time>
      </trkpt>
      <trkpt lat="44.4448" lon="3.88329">
        <ele>818.755</ele>
        <time>2021-01-11T14:07:03Z</time>
      </trkpt>
      <trkpt lat="44.44498" lon="3.88234">
        <ele>817.342</ele>
        <time>2021-01-11T14:07:23Z</time>
      </trkpt>
      <trkpt lat="44.44474" lon="3.88157">
        <ele>824.116</ele>
        <time>2021-01-11T14:07:43Z</time>
      </trkpt>
      <trkpt lat="44.44529" lon="3.88131">
        <ele>819.146</ele>
        <time>2021-01-11T14:08:03Z</time>
      </trkpt>
      <trkpt lat="44.44547" lon="3.88097">
        <ele>828.035</ele>
        <time>2021-01-11T14:08:23Z</time>
      </trkpt>
      <trkpt lat="44.44609" lon="3.88088">
        <ele>823.787</ele>
        <time>2021-01-11T14:08:43Z</time>
      </trkpt>
      <trkpt lat="44.44676" lon="3.8802">
        <ele>837.179</ele>
        <time>2021-01-11T14:09:03Z</time>
      </trkpt>
      <trkpt lat="44.44688" lon="3.8802">
        <ele>837.211</ele>
        <time>2021-01-11T14:09:23Z</time>
      </trkpt>
      <trkpt lat="44.44719" lon="3.8808">
        <ele>827.288</ele>
        <time>2021-01-11T14:09:43Z</time>
      </trkpt>
      <trkpt lat="44.44749" lon="3.88105">
        <ele>829.924</ele>
        <time>2021-01-11T14:10:03Z</time>
      </trkpt>
      <trkpt lat="44.44829" lon="3.88045">
        <ele>830.726</ele>
        <time>2021-01-11T14:10:23Z</time>
      </trkpt>
      <trkpt lat="44.44823" lon="3.88002">
        <ele>834.408</ele>
        <time>2021-01-11T14:10:43Z</time>
      </trkpt>
      <trkpt lat="44.44786" lon="3.87934">
        <ele>842.554</ele>
        <time>2021-01-11T14:11:03Z</time>
      </trkpt>
      <trkpt lat="44.44743" lon="3.87822">
        <ele>849.061</ele>
        <time>2021-01-11T14:11:23Z</time>
      </trkpt>
      <trkpt lat="44.44756" lon="3.87736">
        <ele>847.955</ele>
        <time>2021-01-11T14:11:43Z</time>
      </trkpt>
      <trkpt lat="44.44768" lon="3.87659">
        <ele>850.585</ele>
        <time>2021-01-11T14:12:03Z</time>
      </trkpt>
      <trkpt lat="44.44848" lon="3.87548">
        <ele>858.394</ele>
        <time>2021-01-11T14:12:23Z</time>
      </trkpt>
      <trkpt lat="44.44866" lon="3.87479">
        <ele>865.746</ele>
        <time>2021-01-11T14:12:43Z</time>
      </trkpt>
      <trkpt lat="44.44909" lon="3.87488">
        <ele>866.348</ele>
        <time>2021-01-11T14:13:03Z</time>
      </trkpt>
      <trkpt lat="44.44921" lon="3.87342">
        <ele>872.71</ele>
        <time>2021-01-11T14:13:23Z</time>
      </trkpt>
      <trkpt lat="44.44909" lon="3.87256">
        <ele>877.044</ele>
        <time>2021-01-11T14:13:43Z</time>
      </trkpt>
      <trkpt lat="44.44866" lon="3.87187">
        <ele>877.605</ele>
        <time>2021-01-11T14:14:03Z</time>
      </trkpt>
      <trkpt lat="44.4486" lon="3.87127">
        <ele>879.115</ele>
        <time>2021-01-11T14:14:23Z</time>
      </trkpt>
      <trkpt lat="44.44829" lon="3.87041">
        <ele>881.308</ele>
        <time>2021-01-11T14:14:43Z</time>
      </trkpt>
      <trkpt lat="44.44841" lon="3.86955">
        <ele>874.68</ele>
        <time>2021-01-11T14:15:03Z</time>
      </trkpt>
      <trkpt lat="44.44835" lon="3.86878">
        <ele>881.767</ele>
        <time>2021-01-11T14:15:23Z</time>
      </trkpt>
      <trkpt lat="44.44848" lon="3.86801">
        <ele>870.471</ele>
        <time>2021-01-11T14:15:43Z</time>
      </trkpt>
      <trkpt lat="44.44835" lon="3.86715">
        <ele>872.341</ele>
        <time>2021-01-11T14:16:03Z</time>
      </trkpt>
      <trkpt lat="44.44854" lon="3.86655">
        <ele>867.58</ele>
        <time>2021-01-11T14:16:23Z</time>
      </trkpt>
      <trkpt lat="44.44841" lon="3.86586">
        <ele>865.652</ele>
        <time>2021-01-11T14:16:43Z</time>
      </trkpt>
      <trkpt lat="44.44774" lon="3.86509">
        <ele>865.584</ele>
        <time>2021-01-11T14:17:03Z</time>
      </trkpt>
      <trkpt lat="44.44762" lon="3.86466">
        <ele>862.886</ele>
        <time>2021-01-11T14:17:23Z</time>
      </trkpt>
      <trkpt lat="44.4478" lon="3.86406">
        <ele>857.074</ele>
        <time>2021-01-11T14:17:43Z</time>
      </trkpt>
      <trkpt lat="44.44774" lon="3.8626">
        <ele>848.856</ele>
        <time>2021-01-11T14:18:03Z</time>
      </trkpt>
      <trkpt lat="44.44798" lon="3.86226">
        <ele>854.021</ele>
        <time>2021-01-11T14:18:23Z</time>
      </trkpt>
      <trkpt lat="44.4486" lon="3.86329">
        <ele>841.608</ele>
        <time>2021-01-11T14:18:43Z</time>
      </trkpt>
      <trkpt lat="44.45093" lon="3.86346">
        <ele>829.893</ele>
        <time>2021-01-11T14:19:03Z</time>
      </trkpt>
      <trkpt lat="44.45295" lon="3.8644">
        <ele>806.28</ele>
        <time>2021-01-11T14:19:23Z</time>
      </trkpt>
      <trkpt lat="44.45313" lon="3.86415">
        <ele>805.914</ele>
        <time>2021-01-11T14:19:43Z</time>
      </trkpt>
      <trkpt lat="44.45325" lon="3.86355">
        <ele>802.334</ele>
        <time>2021-01-11T14:20:03Z</time>
      </trkpt>
      <trkpt lat="44.45344" lon="3.86294">
        <ele>799.953</ele>
        <time>2021-01-11T14:20:23Z</time>
      </trkpt>
      <trkpt lat="44.45381" lon="3.86243">
        <ele>801.375</ele>
        <time>2021-01-11T14:20:43Z</time>
      </trkpt>
      <trkpt lat="44.4543" lon="3.86329">
        <ele>809.027</ele>
        <time>2021-01-11T14:21:03Z</time>
      </trkpt>
      <trkpt lat="44.45436" lon="3.86543">
        <ele>808.159</ele>
        <time>2021-01-11T14:21:23Z</time>
      </trkpt>
      <trkpt lat="44.45442" lon="3.86543">
        <ele>809.068</ele>
        <time>2021-01-11T14:21:43Z</time>
      </trkpt>
      <trkpt lat="44.45491" lon="3.86363">
        <ele>820.542</ele>
        <time>2021-01-11T14:22:03Z</time>
      </trkpt>
      <trkpt lat="44.45515" lon="3.86312">
        <ele>824.926</ele>
        <time>2021-01-11T14:22:23Z</time>
      </trkpt>
      <trkpt lat="44.45607" lon="3.86183">
        <ele>841.908</ele>
        <time>2021-01-11T14:22:43Z</time>
      </trkpt>
      <trkpt lat="44.45718" lon="3.86071">
        <ele>863.782</ele>
        <time>2021-01-11T14:23:03Z</time>
      </trkpt>
      <trkpt lat="44.45834" lon="3.85754">
        <ele>894.499</ele>
        <time>2021-01-11T14:23:23Z</time>
      </trkpt>
      <trkpt lat="44.45914" lon="3.85668">
        <ele>895.363</ele>
        <time>2021-01-11T14:23:43Z</time>
      </trkpt>
      <trkpt lat="44.45969" lon="3.85582">
        <ele>899.253</ele>
        <time>2021-01-11T14:24:03Z</time>
      </trkpt>
      <trkpt lat="44.46036" lon="3.85513">
        <ele>898.712</ele>
        <time>2021-01-11T14:24:23Z</time>
      </trkpt>
      <trkpt lat="44.46085" lon="3.85488">
        <ele>891.584</ele>
        <time>2021-01-11T14:24:43Z</time>
      </trkpt>
      <trkpt lat="44.46042" lon="3.85402">
        <ele>886.496</ele>
        <time>2021-01-11T14:25:03Z</time>
      </trkpt>
      <trkpt lat="44.46036" lon="3.85367">
        <ele>887.458</ele>
        <time>2021-01-11T14:25:23Z</time>
      </trkpt>
      <trkpt lat="44.46128" lon="3.85222">
        <ele>863.487</ele>
        <time>2021-01-11T14:25:43Z</time>
      </trkpt>
      <trkpt lat="44.4614" lon="3.8511">
        <ele>855.442</ele>
        <time>2021-01-11T14:26:03Z</time>
      </trkpt>
      <trkpt lat="44.46122" lon="3.8499">
        <ele>850.226</ele>
        <time>2021-01-11T14:26:23Z</time>
      </trkpt>
      <trkpt lat="44.46171" lon="3.84895">
        <ele>844.608</ele>
        <time>2021-01-11T14:26:43Z</time>
      </trkpt>
      <trkpt lat="44.46189" lon="3.84767">
        <ele>838.074</ele>
        <time>2021-01-11T14:27:03Z</time>
      </trkpt>
      <trkpt lat="44.46183" lon="3.84724">
        <ele>835.941</ele>
        <time>2021-01-11T14:27:23Z</time>
      </trkpt>
      <trkpt lat="44.46152" lon="3.84672">
        <ele>832.765</ele>
        <time>2021-01-11T14:27:43Z</time>
      </trkpt>
      <trkpt lat="44.46152" lon="3.84492">
        <ele>818.485</ele>
        <time>2021-01-11T14:28:03Z</time>
      </trkpt>
      <trkpt lat="44.46116" lon="3.84277">
        <ele>804.564</ele>
        <time>2021-01-11T14:28:23Z</time>
      </trkpt>
      <trkpt lat="44.46116" lon="3.84252">
        <ele>805.496</ele>
        <time>2021-01-11T14:28:43Z</time>
      </trkpt>
      <trkpt lat="44.46128" lon="3.84217">
        <ele>806.568</ele>
        <time>2021-01-11T14:29:03Z</time>
      </trkpt>
      <trkpt lat="44.46214" lon="3.84123">
        <ele>827.35</ele>
        <time>2021-01-11T14:29:23Z</time>
      </trkpt>
      <trkpt lat="44.46201" lon="3.84114">
        <ele>829.932</ele>
        <time>2021-01-11T14:29:43Z</time>
      </trkpt>
      <trkpt lat="44.46134" lon="3.84132">
        <ele>831.292</ele>
        <time>2021-01-11T14:30:03Z</time>
      </trkpt>
      <trkpt lat="44.46122" lon="3.84114">
        <ele>836.611</ele>
        <time>2021-01-11T14:30:23Z</time>
      </trkpt>
      <trkpt lat="44.46226" lon="3.84071">
        <ele>843.008</ele>
        <time>2021-01-11T14:30:43Z</time>
      </trkpt>
      <trkpt lat="44.46293" lon="3.8402">
        <ele>846.739</ele>
        <time>2021-01-11T14:31:03Z</time>
      </trkpt>
      <trkpt lat="44.4633" lon="3.8402">
        <ele>845.976</ele>
        <time>2021-01-11T14:31:23Z</time>
      </trkpt>
      <trkpt lat="44.46404" lon="3.83943">
        <ele>857.42</ele>
        <time>2021-01-11T14:31:43Z</time>
      </trkpt>
      <trkpt lat="44.46428" lon="3.83951">
        <ele>856.78</ele>
        <time>2021-01-11T14:32:03Z</time>
      </trkpt>
      <trkpt lat="44.46459" lon="3.83994">
        <ele>852.079</ele>
        <time>2021-01-11T14:32:23Z</time>
      </trkpt>
      <trkpt lat="44.46502" lon="3.84003">
        <ele>855.621</ele>
        <time>2021-01-11T14:32:43Z</time>
      </trkpt>
      <trkpt lat="44.46545" lon="3.8396">
        <ele>863.213</ele>
        <time>2021-01-11T14:33:03Z</time>
      </trkpt>
      <trkpt lat="44.46563" lon="3.83908">
        <ele>863.825</ele>
        <time>2021-01-11T14:33:23Z</time>
      </trkpt>
      <trkpt lat="44.46563" lon="3.83857">
        <ele>863.012</ele>
        <time>2021-01-11T14:33:43Z</time>
      </trkpt>
      <trkpt lat="44.46514" lon="3.83762">
        <ele>864.932</ele>
        <time>2021-01-11T14:34:03Z</time>
      </trkpt>
      <trkpt lat="44.46471" lon="3.83608">
        <ele>865.305</ele>
        <time>2021-01-11T14:34:23Z</time>
      </trkpt>
      <trkpt lat="44.46477" lon="3.83574">
        <ele>863.008</ele>
        <time>2021-01-11T14:34:43Z</time>
      </trkpt>
      <trkpt lat="44.46532" lon="3.83514">
        <ele>858.427</ele>
        <time>2021-01-11T14:35:03Z</time>
      </trkpt>
      <trkpt lat="44.46526" lon="3.83436">
        <ele>860.584</ele>
        <time>2021-01-11T14:35:23Z</time>
      </trkpt>
      <trkpt lat="44.46477" lon="3.83393">
        <ele>862.288</ele>
        <time>2021-01-11T14:35:43Z</time>
      </trkpt>
      <trkpt lat="44.46447" lon="3.83265">
        <ele>859.158</ele>
        <time>2021-01-11T14:36:03Z</time>
      </trkpt>
      <trkpt lat="44.46391" lon="3.83205">
        <ele>868.617</ele>
        <time>2021-01-11T14:36:23Z</time>
      </trkpt>
      <trkpt lat="44.46373" lon="3.83093">
        <ele>864.269</ele>
        <time>2021-01-11T14:36:43Z</time>
      </trkpt>
      <trkpt lat="44.46324" lon="3.8305">
        <ele>871.641</ele>
        <time>2021-01-11T14:37:03Z</time>
      </trkpt>
      <trkpt lat="44.46306" lon="3.83007">
        <ele>873.253</ele>
        <time>2021-01-11T14:37:23Z</time>
      </trkpt>
      <trkpt lat="44.46306" lon="3.82896">
        <ele>872.863</ele>
        <time>2021-01-11T14:37:43Z</time>
      </trkpt>
      <trkpt lat="44.46361" lon="3.82853">
        <ele>865.444</ele>
        <time>2021-01-11T14:38:03Z</time>
      </trkpt>
      <trkpt lat="44.4641" lon="3.82767">
        <ele>859.418</ele>
        <time>2021-01-11T14:38:23Z</time>
      </trkpt>
      <trkpt lat="44.46453" lon="3.8275">
        <ele>855.308</ele>
        <time>2021-01-11T14:38:43Z</time>
      </trkpt>
      <trkpt lat="44.46355" lon="3.82681">
        <ele>844.092</ele>
        <time>2021-01-11T14:39:03Z</time>
      </trkpt>
      <trkpt lat="44.46318" lon="3.82672">
        <ele>841.459</ele>
        <time>2021-01-11T14:39:23Z</time>
      </trkpt>
      <trkpt lat="44.46293" lon="3.82681">
        <ele>844.763</ele>
        <time>2021-01-11T14:39:43Z</time>
      </trkpt>
      <trkpt lat="44.46232" lon="3.82569">
        <ele>835.923</ele>
        <time>2021-01-11T14:40:03Z</time>
      </trkpt>
      <trkpt lat="44.46189" lon="3.82518">
        <ele>841.662</ele>
        <time>2021-01-11T14:40:23Z</time>
      </trkpt>
      <trkpt lat="44.4622" lon="3.82466">
        <ele>832.594</ele>
        <time>2021-01-11T14:40:43Z</time>
      </trkpt>
      <trkpt lat="44.46263" lon="3.82492">
        <ele>834.216</ele>
        <time>2021-01-11T14:41:03Z</time>
      </trkpt>
      <trkpt lat="44.46306" lon="3.82243">
        <ele>857.028</ele>
        <time>2021-01-11T14:41:23Z</time>
      </trkpt>
      <trkpt lat="44.4633" lon="3.82235">
        <ele>858.226</ele>
        <time>2021-01-11T14:41:43Z</time>
      </trkpt>
      <trkpt lat="44.46398" lon="3.8226">
        <ele>857.347</ele>
        <time>2021-01-11T14:42:03Z</time>
      </trkpt>
      <trkpt lat="44.46404" lon="3.82243">
        <ele>860.611</ele>
        <time>2021-01-11T14:42:23Z</time>
      </trkpt>
      <trkpt lat="44.4633" lon="3.82115">
        <ele>873.908</ele>
        <time>2021-01-11T14:42:43Z</time>
      </trkpt>
      <trkpt lat="44.46257" lon="3.81883">
        <ele>900.188</ele>
        <time>2021-01-11T14:43:03Z</time>
      </trkpt>
      <trkpt lat="44.4625" lon="3.81771">
        <ele>906.195</ele>
        <time>2021-01-11T14:43:23Z</time>
      </trkpt>
      <trkpt lat="44.46257" lon="3.81754">
        <ele>907.419</ele>
        <time>2021-01-11T14:43:43Z</time>
      </trkpt>
      <trkpt lat="44.46293" lon="3.81737">
        <ele>903.419</ele>
        <time>2021-01-11T14:44:03Z</time>
      </trkpt>
      <trkpt lat="44.46306" lon="3.81711">
        <ele>907.068</ele>
        <time>2021-01-11T14:44:23Z</time>
      </trkpt>
      <trkpt lat="44.46306" lon="3.8166">
        <ele>914.29</ele>
        <time>2021-01-11T14:44:43Z</time>
      </trkpt>
      <trkpt lat="44.46293" lon="3.81574">
        <ele>920.112</ele>
        <time>2021-01-11T14:45:03Z</time>
      </trkpt>
      <trkpt lat="44.46257" lon="3.81479">
        <ele>930.844</ele>
        <time>2021-01-11T14:45:23Z</time>
      </trkpt>
      <trkpt lat="44.46232" lon="3.81351">
        <ele>949.593</ele>
        <time>2021-01-11T14:45:43Z</time>
      </trkpt>
      <trkpt lat="44.46263" lon="3.81265">
        <ele>949.765</ele>
        <time>2021-01-11T14:46:03Z</time>
      </trkpt>
      <trkpt lat="44.46232" lon="3.8111">
        <ele>962.221</ele>
        <time>2021-01-11T14:46:23Z</time>
      </trkpt>
      <trkpt lat="44.46269" lon="3.8087">
        <ele>978.408</ele>
        <time>2021-01-11T14:46:43Z</time>
      </trkpt>
      <trkpt lat="44.46263" lon="3.80827">
        <ele>985.585</ele>
        <time>2021-01-11T14:47:03Z</time>
      </trkpt>
      <trkpt lat="44.46238" lon="3.80776">
        <ele>997.562</ele>
        <time>2021-01-11T14:47:23Z</time>
      </trkpt>
      <trkpt lat="44.46306" lon="3.80733">
        <ele>1002.376</ele>
        <time>2021-01-11T14:47:43Z</time>
      </trkpt>
      <trkpt lat="44.46367" lon="3.80793">
        <ele>986.036</ele>
        <time>2021-01-11T14:48:03Z</time>
      </trkpt>
      <trkpt lat="44.46391" lon="3.80793">
        <ele>987.165</ele>
        <time>2021-01-11T14:48:23Z</time>
      </trkpt>
      <trkpt lat="44.46538" lon="3.80647">
        <ele>1004.497</ele>
        <time>2021-01-11T14:48:43Z</time>
      </trkpt>
      <trkpt lat="44.46538" lon="3.80604">
        <ele>1006.519</ele>
        <time>2021-01-11T14:49:03Z</time>
      </trkpt>
      <trkpt lat="44.46471" lon="3.80441">
        <ele>1034.861</ele>
        <time>2021-01-11T14:49:23Z</time>
      </trkpt>
      <trkpt lat="44.46465" lon="3.80381">
        <ele>1037.149</ele>
        <time>2021-01-11T14:49:43Z</time>
      </trkpt>
      <trkpt lat="44.4641" lon="3.80252">
        <ele>1055.102</ele>
        <time>2021-01-11T14:50:03Z</time>
      </trkpt>
      <trkpt lat="44.46459" lon="3.80235">
        <ele>1048.222</ele>
        <time>2021-01-11T14:50:23Z</time>
      </trkpt>
      <trkpt lat="44.46483" lon="3.80175">
        <ele>1058.608</ele>
        <time>2021-01-11T14:50:43Z</time>
      </trkpt>
      <trkpt lat="44.4652" lon="3.8014">
        <ele>1052.13</ele>
        <time>2021-01-11T14:51:03Z</time>
      </trkpt>
      <trkpt lat="44.46563" lon="3.79969">
        <ele>1071.557</ele>
        <time>2021-01-11T14:51:23Z</time>
      </trkpt>
      <trkpt lat="44.46587" lon="3.79934">
        <ele>1070.791</ele>
        <time>2021-01-11T14:51:43Z</time>
      </trkpt>
      <trkpt lat="44.466" lon="3.79874">
        <ele>1079.031</ele>
        <time>2021-01-11T14:52:03Z</time>
      </trkpt>
      <trkpt lat="44.46643" lon="3.79806">
        <ele>1082.47</ele>
        <time>2021-01-11T14:52:23Z</time>
      </trkpt>
      <trkpt lat="44.46649" lon="3.79694">
        <ele>1099.952</ele>
        <time>2021-01-11T14:52:43Z</time>
      </trkpt>
      <trkpt lat="44.46716" lon="3.79643">
        <ele>1091.274</ele>
        <time>2021-01-11T14:53:03Z</time>
      </trkpt>
      <trkpt lat="44.46728" lon="3.796">
        <ele>1089.556</ele>
        <time>2021-01-11T14:53:23Z</time>
      </trkpt>
      <trkpt lat="44.46808" lon="3.79531">
        <ele>1074.381</ele>
        <time>2021-01-11T14:53:43Z</time>
      </trkpt>
      <trkpt lat="44.4693" lon="3.79342">
        <ele>1036.961</ele>
        <time>2021-01-11T14:54:03Z</time>
      </trkpt>
      <trkpt lat="44.46924" lon="3.79231">
        <ele>1025.317</ele>
        <time>2021-01-11T14:54:23Z</time>
      </trkpt>
      <trkpt lat="44.46894" lon="3.79179">
        <ele>1019.108</ele>
        <time>2021-01-11T14:54:43Z</time>
      </trkpt>
      <trkpt lat="44.46894" lon="3.79128">
        <ele>1010.934</ele>
        <time>2021-01-11T14:55:03Z</time>
      </trkpt>
      <trkpt lat="44.46924" lon="3.79093">
        <ele>1007.681</ele>
        <time>2021-01-11T14:55:23Z</time>
      </trkpt>
      <trkpt lat="44.46967" lon="3.79085">
        <ele>1002.035</ele>
        <time>2021-01-11T14:55:43Z</time>
      </trkpt>
      <trkpt lat="44.46967" lon="3.79059">
        <ele>995.625</ele>
        <time>2021-01-11T14:56:03Z</time>
      </trkpt>
      <trkpt lat="44.46924" lon="3.79016">
        <ele>989.564</ele>
        <time>2021-01-11T14:56:23Z</time>
      </trkpt>
      <trkpt lat="44.47022" lon="3.78965">
        <ele>973.386</ele>
        <time>2021-01-11T14:56:43Z</time>
      </trkpt>
      <trkpt lat="44.47059" lon="3.78827">
        <ele>964.848</ele>
        <time>2021-01-11T14:57:03Z</time>
      </trkpt>
      <trkpt lat="44.47047" lon="3.78716">
        <ele>967.07</ele>
        <time>2021-01-11T14:57:23Z</time>
      </trkpt>
      <trkpt lat="44.47065" lon="3.7869">
        <ele>968.158</ele>
        <time>2021-01-11T14:57:43Z</time>
      </trkpt>
      <trkpt lat="44.47096" lon="3.78673">
        <ele>966.552</ele>
        <time>2021-01-11T14:58:03Z</time>
      </trkpt>
      <trkpt lat="44.47145" lon="3.78587">
        <ele>970.017</ele>
        <time>2021-01-11T14:58:23Z</time>
      </trkpt>
      <trkpt lat="44.47157" lon="3.78501">
        <ele>974.908</ele>
        <time>2021-01-11T14:58:43Z</time>
      </trkpt>
      <trkpt lat="44.47157" lon="3.78424">
        <ele>983.481</ele>
        <time>2021-01-11T14:59:03Z</time>
      </trkpt>
      <trkpt lat="44.47163" lon="3.78407">
        <ele>984.048</ele>
        <time>2021-01-11T14:59:23Z</time>
      </trkpt>
      <trkpt lat="44.47206" lon="3.78355">
        <ele>984.972</ele>
        <time>2021-01-11T14:59:43Z</time>
      </trkpt>
      <trkpt lat="44.47231" lon="3.78286">
        <ele>989.122</ele>
        <time>2021-01-11T15:00:03Z</time>
      </trkpt>
      <trkpt lat="44.47231" lon="3.78226">
        <ele>987.031</ele>
        <time>2021-01-11T15:00:23Z</time>
      </trkpt>
      <trkpt lat="44.47175" lon="3.78141">
        <ele>984.323</ele>
        <time>2021-01-11T15:00:43Z</time>
      </trkpt>
      <trkpt lat="44.47169" lon="3.78046">
        <ele>983.945</ele>
        <time>2021-01-11T15:01:03Z</time>
      </trkpt>
      <trkpt lat="44.47188" lon="3.7802">
        <ele>983.577</ele>
        <time>2021-01-11T15:01:23Z</time>
      </trkpt>
      <trkpt lat="44.47249" lon="3.77977">
        <ele>983.685</ele>
        <time>2021-01-11T15:01:43Z</time>
      </trkpt>
      <trkpt lat="44.4728" lon="3.77917">
        <ele>983.489</ele>
        <time>2021-01-11T15:02:03Z</time>
      </trkpt>
      <trkpt lat="44.47286" lon="3.7784">
        <ele>984.917</ele>
        <time>2021-01-11T15:02:23Z</time>
      </trkpt>
      <trkpt lat="44.47261" lon="3.77737">
        <ele>988.308</ele>
        <time>2021-01-11T15:02:43Z</time>
      </trkpt>
      <trkpt lat="44.47298" lon="3.7766">
        <ele>987.614</ele>
        <time>2021-01-11T15:03:03Z</time>
      </trkpt>
      <trkpt lat="44.47304" lon="3.77634">
        <ele>987.751</ele>
        <time>2021-01-11T15:03:23Z</time>
      </trkpt>
      <trkpt lat="44.4728" lon="3.77557">
        <ele>984.875</ele>
        <time>2021-01-11T15:03:43Z</time>
      </trkpt>
      <trkpt lat="44.47224" lon="3.7748">
        <ele>987.265</ele>
        <time>2021-01-11T15:04:03Z</time>
      </trkpt>
      <trkpt lat="44.47194" lon="3.77359">
        <ele>985.164</ele>
        <time>2021-01-11T15:04:23Z</time>
      </trkpt>
      <trkpt lat="44.47194" lon="3.77334">
        <ele>984.226</ele>
        <time>2021-01-11T15:04:43Z</time>
      </trkpt>
      <trkpt lat="44.47273" lon="3.77299">
        <ele>977.688</ele>
        <time>2021-01-11T15:05:03Z</time>
      </trkpt>
      <trkpt lat="44.47322" lon="3.77317">
        <ele>979.47</ele>
        <time>2021-01-11T15:05:23Z</time>
      </trkpt>
      <trkpt lat="44.47365" lon="3.77291">
        <ele>984.416</ele>
        <time>2021-01-11T15:05:43Z</time>
      </trkpt>
      <trkpt lat="44.47371" lon="3.77274">
        <ele>984.876</ele>
        <time>2021-01-11T15:06:03Z</time>
      </trkpt>
      <trkpt lat="44.47359" lon="3.77231">
        <ele>986.013</ele>
        <time>2021-01-11T15:06:23Z</time>
      </trkpt>
      <trkpt lat="44.47298" lon="3.77188">
        <ele>989.208</ele>
        <time>2021-01-11T15:06:43Z</time>
      </trkpt>
      <trkpt lat="44.47188" lon="3.77016">
        <ele>991.377</ele>
        <time>2021-01-11T15:07:03Z</time>
      </trkpt>
      <trkpt lat="44.47114" lon="3.76956">
        <ele>1000.954</ele>
        <time>2021-01-11T15:07:23Z</time>
      </trkpt>
      <trkpt lat="44.47016" lon="3.76913">
        <ele>1018.588</ele>
        <time>2021-01-11T15:07:43Z</time>
      </trkpt>
      <trkpt lat="44.47035" lon="3.76887">
        <ele>1020.718</ele>
        <time>2021-01-11T15:08:03Z</time>
      </trkpt>
      <trkpt lat="44.47035" lon="3.76862">
        <ele>1023.837</ele>
        <time>2021-01-11T15:08:23Z</time>
      </trkpt>
      <trkpt lat="44.47047" lon="3.76664">
        <ele>1036.569</ele>
        <time>2021-01-11T15:08:43Z</time>
      </trkpt>
      <trkpt lat="44.47028" lon="3.76484">
        <ele>1058.411</ele>
        <time>2021-01-11T15:09:03Z</time>
      </trkpt>
      <trkpt lat="44.47053" lon="3.76424">
        <ele>1056.863</ele>
        <time>2021-01-11T15:09:23Z</time>
      </trkpt>
      <trkpt lat="44.47077" lon="3.76244">
        <ele>1062.661</ele>
        <time>2021-01-11T15:09:43Z</time>
      </trkpt>
      <trkpt lat="44.47016" lon="3.76132">
        <ele>1087.121</ele>
        <time>2021-01-11T15:10:03Z</time>
      </trkpt>
      <trkpt lat="44.47071" lon="3.76089">
        <ele>1078.113</ele>
        <time>2021-01-11T15:10:23Z</time>
      </trkpt>
      <trkpt lat="44.4712" lon="3.75969">
        <ele>1084.408</ele>
        <time>2021-01-11T15:10:43Z</time>
      </trkpt>
      <trkpt lat="44.47169" lon="3.75883">
        <ele>1081.562</ele>
        <time>2021-01-11T15:11:03Z</time>
      </trkpt>
      <trkpt lat="44.47206" lon="3.75772">
        <ele>1073.939</ele>
        <time>2021-01-11T15:11:23Z</time>
      </trkpt>
      <trkpt lat="44.47206" lon="3.75712">
        <ele>1076.953</ele>
        <time>2021-01-11T15:11:43Z</time>
      </trkpt>
      <trkpt lat="44.472" lon="3.75643">
        <ele>1072.613</ele>
        <time>2021-01-11T15:12:03Z</time>
      </trkpt>
      <trkpt lat="44.47145" lon="3.75531">
        <ele>1073.912</ele>
        <time>2021-01-11T15:12:23Z</time>
      </trkpt>
      <trkpt lat="44.47194" lon="3.75445">
        <ele>1068.014</ele>
        <time>2021-01-11T15:12:43Z</time>
      </trkpt>
      <trkpt lat="44.47182" lon="3.75351">
        <ele>1071.146</ele>
        <time>2021-01-11T15:13:03Z</time>
      </trkpt>
      <trkpt lat="44.47169" lon="3.75334">
        <ele>1071.728</ele>
        <time>2021-01-11T15:13:23Z</time>
      </trkpt>
      <trkpt lat="44.47157" lon="3.75265">
        <ele>1068.482</ele>
        <time>2021-01-11T15:13:43Z</time>
      </trkpt>
      <trkpt lat="44.47102" lon="3.75205">
        <ele>1079.543</ele>
        <time>2021-01-11T15:14:03Z</time>
      </trkpt>
      <trkpt lat="44.47071" lon="3.75136">
        <ele>1093.717</ele>
        <time>2021-01-11T15:14:23Z</time>
      </trkpt>
      <trkpt lat="44.47077" lon="3.75119">
        <ele>1096.708</ele>
        <time>2021-01-11T15:14:43Z</time>
      </trkpt>
      <trkpt lat="44.47188" lon="3.75102">
        <ele>1102.964</ele>
        <time>2021-01-11T15:15:03Z</time>
      </trkpt>
      <trkpt lat="44.47206" lon="3.75085">
        <ele>1104.841</ele>
        <time>2021-01-11T15:15:23Z</time>
      </trkpt>
      <trkpt lat="44.47224" lon="3.74991">
        <ele>1118.955</ele>
        <time>2021-01-11T15:15:43Z</time>
      </trkpt>
      <trkpt lat="44.47231" lon="3.74827">
        <ele>1131.045</ele>
        <time>2021-01-11T15:16:03Z</time>
      </trkpt>
      <trkpt lat="44.47212" lon="3.74759">
        <ele>1131.634</ele>
        <time>2021-01-11T15:16:23Z</time>
      </trkpt>
      <trkpt lat="44.47157" lon="3.74699">
        <ele>1141.026</ele>
        <time>2021-01-11T15:16:43Z</time>
      </trkpt>
      <trkpt lat="44.47133" lon="3.74656">
        <ele>1141.888</ele>
        <time>2021-01-11T15:17:03Z</time>
      </trkpt>
      <trkpt lat="44.47114" lon="3.74527">
        <ele>1150.38</ele>
        <time>2021-01-11T15:17:23Z</time>
      </trkpt>
      <trkpt lat="44.47163" lon="3.7451">
        <ele>1143.734</ele>
        <time>2021-01-11T15:17:43Z</time>
      </trkpt>
      <trkpt lat="44.472" lon="3.74467">
        <ele>1149.455</ele>
        <time>2021-01-11T15:18:03Z</time>
      </trkpt>
      <trkpt lat="44.47255" lon="3.74201">
        <ele>1161.81</ele>
        <time>2021-01-11T15:18:23Z</time>
      </trkpt>
      <trkpt lat="44.47298" lon="3.74184">
        <ele>1154.308</ele>
        <time>2021-01-11T15:18:43Z</time>
      </trkpt>
      <trkpt lat="44.47347" lon="3.74107">
        <ele>1161.339</ele>
        <time>2021-01-11T15:19:03Z</time>
      </trkpt>
      <trkpt lat="44.47378" lon="3.74029">
        <ele>1174.466</ele>
        <time>2021-01-11T15:19:23Z</time>
      </trkpt>
      <trkpt lat="44.47402" lon="3.74004">
        <ele>1180.14</ele>
        <time>2021-01-11T15:19:43Z</time>
      </trkpt>
      <trkpt lat="44.47427" lon="3.73943">
        <ele>1187.15</ele>
        <time>2021-01-11T15:20:03Z</time>
      </trkpt>
      <trkpt lat="44.47408" lon="3.73849">
        <ele>1194.169</ele>
        <time>2021-01-11T15:20:23Z</time>
      </trkpt>
      <trkpt lat="44.47463" lon="3.73875">
        <ele>1193.241</ele>
        <time>2021-01-11T15:20:43Z</time>
      </trkpt>
      <trkpt lat="44.47549" lon="3.73986">
        <ele>1193.583</ele>
        <time>2021-01-11T15:21:03Z</time>
      </trkpt>
      <trkpt lat="44.47678" lon="3.74012">
        <ele>1186.185</ele>
        <time>2021-01-11T15:21:23Z</time>
      </trkpt>
      <trkpt lat="44.47757" lon="3.74046">
        <ele>1184.341</ele>
        <time>2021-01-11T15:21:43Z</time>
      </trkpt>
      <trkpt lat="44.47935" lon="3.74038">
        <ele>1188.281</ele>
        <time>2021-01-11T15:22:03Z</time>
      </trkpt>
      <trkpt lat="44.48259" lon="3.73892">
        <ele>1145.509</ele>
        <time>2021-01-11T15:22:23Z</time>
      </trkpt>
      <trkpt lat="44.48284" lon="3.73918">
        <ele>1147.508</ele>
        <time>2021-01-11T15:22:43Z</time>
      </trkpt>
      <trkpt lat="44.48333" lon="3.74021">
        <ele>1133.61</ele>
        <time>2021-01-11T15:23:03Z</time>
      </trkpt>
      <trkpt lat="44.48345" lon="3.74021">
        <ele>1132.537</ele>
        <time>2021-01-11T15:23:23Z</time>
      </trkpt>
      <trkpt lat="44.48553" lon="3.73815">
        <ele>1114.681</ele>
        <time>2021-01-11T15:23:43Z</time>
      </trkpt>
      <trkpt lat="44.48615" lon="3.73772">
        <ele>1111.281</ele>
        <time>2021-01-11T15:24:03Z</time>
      </trkpt>
      <trkpt lat="44.48627" lon="3.73746">
        <ele>1108.11</ele>
        <time>2021-01-11T15:24:23Z</time>
      </trkpt>
      <trkpt lat="44.48621" lon="3.73729">
        <ele>1106.622</ele>
        <time>2021-01-11T15:24:43Z</time>
      </trkpt>
      <trkpt lat="44.48694" lon="3.7366">
        <ele>1096.184</ele>
        <time>2021-01-11T15:25:03Z</time>
      </trkpt>
      <trkpt lat="44.48657" lon="3.73634">
        <ele>1092.896</ele>
        <time>2021-01-11T15:25:23Z</time>
      </trkpt>
      <trkpt lat="44.48657" lon="3.73592">
        <ele>1085.797</ele>
        <time>2021-01-11T15:25:43Z</time>
      </trkpt>
      <trkpt lat="44.48633" lon="3.73592">
        <ele>1084.723</ele>
        <time>2021-01-11T15:26:03Z</time>
      </trkpt>
      <trkpt lat="44.48627" lon="3.73583">
        <ele>1083.525</ele>
        <time>2021-01-11T15:26:23Z</time>
      </trkpt>
      <trkpt lat="44.48627" lon="3.73566">
        <ele>1081.708</ele>
        <time>2021-01-11T15:26:43Z</time>
      </trkpt>
      <trkpt lat="44.48657" lon="3.73557">
        <ele>1081.275</ele>
        <time>2021-01-11T15:27:03Z</time>
      </trkpt>
      <trkpt lat="44.48664" lon="3.73549">
        <ele>1079.772</ele>
        <time>2021-01-11T15:27:23Z</time>
      </trkpt>
      <trkpt lat="44.48645" lon="3.73531">
        <ele>1076.096</ele>
        <time>2021-01-11T15:27:43Z</time>
      </trkpt>
      <trkpt lat="44.48615" lon="3.73446">
        <ele>1068.946</ele>
        <time>2021-01-11T15:28:03Z</time>
      </trkpt>
      <trkpt lat="44.48615" lon="3.73403">
        <ele>1070.465</ele>
        <time>2021-01-11T15:28:23Z</time>
      </trkpt>
      <trkpt lat="44.48517" lon="3.73283">
        <ele>1079.217</ele>
        <time>2021-01-11T15:28:43Z</time>
      </trkpt>
      <trkpt lat="44.48523" lon="3.73248">
        <ele>1083.559</ele>
        <time>2021-01-11T15:29:03Z</time>
      </trkpt>
      <trkpt lat="44.4851" lon="3.73222">
        <ele>1084.531</ele>
        <time>2021-01-11T15:29:23Z</time>
      </trkpt>
      <trkpt lat="44.48523" lon="3.73102">
        <ele>1107.116</ele>
        <time>2021-01-11T15:29:43Z</time>
      </trkpt>
      <trkpt lat="44.48504" lon="3.73085">
        <ele>1113.776</ele>
        <time>2021-01-11T15:30:03Z</time>
      </trkpt>
      <trkpt lat="44.48474" lon="3.73077">
        <ele>1117.213</ele>
        <time>2021-01-11T15:30:23Z</time>
      </trkpt>
      <trkpt lat="44.48468" lon="3.73042">
        <ele>1127.508</ele>
        <time>2021-01-11T15:30:43Z</time>
      </trkpt>
      <trkpt lat="44.48492" lon="3.73016">
        <ele>1133.637</ele>
        <time>2021-01-11T15:31:03Z</time>
      </trkpt>
      <trkpt lat="44.48492" lon="3.72913">
        <ele>1150.844</ele>
        <time>2021-01-11T15:31:23Z</time>
      </trkpt>
      <trkpt lat="44.48468" lon="3.72871">
        <ele>1156.388</ele>
        <time>2021-01-11T15:31:43Z</time>
      </trkpt>
      <trkpt lat="44.48455" lon="3.72613">
        <ele>1171.278</ele>
        <time>2021-01-11T15:32:03Z</time>
      </trkpt>
      <trkpt lat="44.48425" lon="3.7245">
        <ele>1180.067</ele>
        <time>2021-01-11T15:32:23Z</time>
      </trkpt>
      <trkpt lat="44.48388" lon="3.72407">
        <ele>1184.589</ele>
        <time>2021-01-11T15:32:43Z</time>
      </trkpt>
      <trkpt lat="44.48284" lon="3.72381">
        <ele>1202.181</ele>
        <time>2021-01-11T15:33:03Z</time>
      </trkpt>
      <trkpt lat="44.48259" lon="3.72347">
        <ele>1208.793</ele>
        <time>2021-01-11T15:33:23Z</time>
      </trkpt>
      <trkpt lat="44.48186" lon="3.72124">
        <ele>1182.134</ele>
        <time>2021-01-11T15:33:43Z</time>
      </trkpt>
      <trkpt lat="44.4818" lon="3.72064">
        <ele>1176.055</ele>
        <time>2021-01-11T15:34:03Z</time>
      </trkpt>
      <trkpt lat="44.48112" lon="3.71944">
        <ele>1169.91</ele>
        <time>2021-01-11T15:34:23Z</time>
      </trkpt>
      <trkpt lat="44.48112" lon="3.71935">
        <ele>1168.408</ele>
        <time>2021-01-11T15:34:43Z</time>
      </trkpt>
      <trkpt lat="44.48161" lon="3.71892">
        <ele>1168.659</ele>
        <time>2021-01-11T15:35:03Z</time>
      </trkpt>
      <trkpt lat="44.4818" lon="3.71858">
        <ele>1165.326</ele>
        <time>2021-01-11T15:35:23Z</time>
      </trkpt>
      <trkpt lat="44.48174" lon="3.71695">
        <ele>1155.02</ele>
        <time>2021-01-11T15:35:43Z</time>
      </trkpt>
      <trkpt lat="44.48161" lon="3.7166">
        <ele>1153.57</ele>
        <time>2021-01-11T15:36:03Z</time>
      </trkpt>
      <trkpt lat="44.48125" lon="3.71626">
        <ele>1149.469</ele>
        <time>2021-01-11T15:36:23Z</time>
      </trkpt>
      <trkpt lat="44.48051" lon="3.71497">
        <ele>1142.161</ele>
        <time>2021-01-11T15:36:43Z</time>
      </trkpt>
      <trkpt lat="44.4799" lon="3.7124">
        <ele>1126.523</ele>
        <time>2021-01-11T15:37:03Z</time>
      </trkpt>
      <trkpt lat="44.4799" lon="3.71145">
        <ele>1115.925</ele>
        <time>2021-01-11T15:37:23Z</time>
      </trkpt>
      <trkpt lat="44.47965" lon="3.7112">
        <ele>1106.459</ele>
        <time>2021-01-11T15:37:43Z</time>
      </trkpt>
      <trkpt lat="44.47929" lon="3.71145">
        <ele>1103.603</ele>
        <time>2021-01-11T15:38:03Z</time>
      </trkpt>
      <trkpt lat="44.47929" lon="3.7112">
        <ele>1097.623</ele>
        <time>2021-01-11T15:38:23Z</time>
      </trkpt>
      <trkpt lat="44.48033" lon="3.70914">
        <ele>1080.008</ele>
        <time>2021-01-11T15:38:43Z</time>
      </trkpt>
      <trkpt lat="44.47984" lon="3.70896">
        <ele>1075.041</ele>
        <time>2021-01-11T15:39:03Z</time>
      </trkpt>
      <trkpt lat="44.47959" lon="3.70845">
        <ele>1071.468</ele>
        <time>2021-01-11T15:39:23Z</time>
      </trkpt>
      <trkpt lat="44.47965" lon="3.70793">
        <ele>1074.412</ele>
        <time>2021-01-11T15:39:43Z</time>
      </trkpt>
      <trkpt lat="44.48045" lon="3.70725">
        <ele>1078.252</ele>
        <time>2021-01-11T15:40:03Z</time>
      </trkpt>
      <trkpt lat="44.48088" lon="3.70613">
        <ele>1085.141</ele>
        <time>2021-01-11T15:40:23Z</time>
      </trkpt>
      <trkpt lat="44.48082" lon="3.70553">
        <ele>1090.013</ele>
        <time>2021-01-11T15:40:43Z</time>
      </trkpt>
      <trkpt lat="44.481" lon="3.70502">
        <ele>1094.615</ele>
        <time>2021-01-11T15:41:03Z</time>
      </trkpt>
      <trkpt lat="44.48119" lon="3.70484">
        <ele>1099.857</ele>
        <time>2021-01-11T15:41:23Z</time>
      </trkpt>
      <trkpt lat="44.48204" lon="3.70527">
        <ele>1109.832</ele>
        <time>2021-01-11T15:41:43Z</time>
      </trkpt>
      <trkpt lat="44.48339" lon="3.70502">
        <ele>1114.392</ele>
        <time>2021-01-11T15:42:03Z</time>
      </trkpt>
      <trkpt lat="44.48443" lon="3.7027">
        <ele>1139.511</ele>
        <time>2021-01-11T15:42:23Z</time>
      </trkpt>
      <trkpt lat="44.48443" lon="3.70244">
        <ele>1140.208</ele>
        <time>2021-01-11T15:42:43Z</time>
      </trkpt>
      <trkpt lat="44.48413" lon="3.70227">
        <ele>1143.229</ele>
        <time>2021-01-11T15:43:03Z</time>
      </trkpt>
      <trkpt lat="44.48339" lon="3.70141">
        <ele>1142.686</ele>
        <time>2021-01-11T15:43:23Z</time>
      </trkpt>
      <trkpt lat="44.48321" lon="3.70064">
        <ele>1148.07</ele>
        <time>2021-01-11T15:43:43Z</time>
      </trkpt>
      <trkpt lat="44.4837" lon="3.69763">
        <ele>1161.91</ele>
        <time>2021-01-11T15:44:03Z</time>
      </trkpt>
      <trkpt lat="44.48468" lon="3.6948">
        <ele>1169.329</ele>
        <time>2021-01-11T15:44:23Z</time>
      </trkpt>
      <trkpt lat="44.48492" lon="3.69257">
        <ele>1165.321</ele>
        <time>2021-01-11T15:44:43Z</time>
      </trkpt>
      <trkpt lat="44.48333" lon="3.69145">
        <ele>1162.093</ele>
        <time>2021-01-11T15:45:03Z</time>
      </trkpt>
      <trkpt lat="44.48315" lon="3.68931">
        <ele>1173.765</ele>
        <time>2021-01-11T15:45:23Z</time>
      </trkpt>
      <trkpt lat="44.48321" lon="3.68905">
        <ele>1172.493</ele>
        <time>2021-01-11T15:45:43Z</time>
      </trkpt>
      <trkpt lat="44.48351" lon="3.68871">
        <ele>1164.865</ele>
        <time>2021-01-11T15:46:03Z</time>
      </trkpt>
      <trkpt lat="44.4837" lon="3.68828">
        <ele>1162.921</ele>
        <time>2021-01-11T15:46:23Z</time>
      </trkpt>
      <trkpt lat="44.48345" lon="3.68708">
        <ele>1163.108</ele>
        <time>2021-01-11T15:46:43Z</time>
      </trkpt>
      <trkpt lat="44.48308" lon="3.68631">
        <ele>1164.915</ele>
        <time>2021-01-11T15:47:03Z</time>
      </trkpt>
      <trkpt lat="44.48296" lon="3.68502">
        <ele>1168.712</ele>
        <time>2021-01-11T15:47:23Z</time>
      </trkpt>
      <trkpt lat="44.48278" lon="3.68433">
        <ele>1174.086</ele>
        <time>2021-01-11T15:47:43Z</time>
      </trkpt>
      <trkpt lat="44.48284" lon="3.68287">
        <ele>1174.746</ele>
        <time>2021-01-11T15:48:03Z</time>
      </trkpt>
      <trkpt lat="44.48278" lon="3.68261">
        <ele>1176.435</ele>
        <time>2021-01-11T15:48:23Z</time>
      </trkpt>
      <trkpt lat="44.48241" lon="3.6821">
        <ele>1185.137</ele>
        <time>2021-01-11T15:48:43Z</time>
      </trkpt>
      <trkpt lat="44.4821" lon="3.68073">
        <ele>1194.829</ele>
        <time>2021-01-11T15:49:03Z</time>
      </trkpt>
      <trkpt lat="44.48217" lon="3.68021">
        <ele>1194.641</ele>
        <time>2021-01-11T15:49:23Z</time>
      </trkpt>
      <trkpt lat="44.48229" lon="3.67952">
        <ele>1196.357</ele>
        <time>2021-01-11T15:49:43Z</time>
      </trkpt>
      <trkpt lat="44.48217" lon="3.67841">
        <ele>1195.5</ele>
        <time>2021-01-11T15:50:03Z</time>
      </trkpt>
      <trkpt lat="44.48063" lon="3.67764">
        <ele>1199.72</ele>
        <time>2021-01-11T15:50:23Z</time>
      </trkpt>
      <trkpt lat="44.48002" lon="3.67669">
        <ele>1205.508</ele>
        <time>2021-01-11T15:50:43Z</time>
      </trkpt>
      <trkpt lat="44.47978" lon="3.67643">
        <ele>1205.711</ele>
        <time>2021-01-11T15:51:03Z</time>
      </trkpt>
      <trkpt lat="44.47947" lon="3.67635">
        <ele>1207.258</ele>
        <time>2021-01-11T15:51:23Z</time>
      </trkpt>
      <trkpt lat="44.4788" lon="3.67678">
        <ele>1208.022</ele>
        <time>2021-01-11T15:51:43Z</time>
      </trkpt>
      <trkpt lat="44.47812" lon="3.67772">
        <ele>1208.032</ele>
        <time>2021-01-11T15:52:03Z</time>
      </trkpt>
      <trkpt lat="44.47763" lon="3.67807">
        <ele>1207.541</ele>
        <time>2021-01-11T15:52:23Z</time>
      </trkpt>
      <trkpt lat="44.47733" lon="3.67867">
        <ele>1210.323</ele>
        <time>2021-01-11T15:52:43Z</time>
      </trkpt>
      <trkpt lat="44.4769" lon="3.67901">
        <ele>1207.225</ele>
        <time>2021-01-11T15:53:03Z</time>
      </trkpt>
      <trkpt lat="44.47665" lon="3.67901">
        <ele>1201.737</ele>
        <time>2021-01-11T15:53:23Z</time>
      </trkpt>
      <trkpt lat="44.47727" lon="3.67764">
        <ele>1188.093</ele>
        <time>2021-01-11T15:53:43Z</time>
      </trkpt>
      <trkpt lat="44.47757" lon="3.67712">
        <ele>1182.765</ele>
        <time>2021-01-11T15:54:03Z</time>
      </trkpt>
      <trkpt lat="44.47788" lon="3.67601">
        <ele>1169.921</ele>
        <time>2021-01-11T15:54:23Z</time>
      </trkpt>
      <trkpt lat="44.47788" lon="3.67583">
        <ele>1167.208</ele>
        <time>2021-01-11T15:54:43Z</time>
      </trkpt>
      <trkpt lat="44.47763" lon="3.67532">
        <ele>1153.945</ele>
        <time>2021-01-11T15:55:03Z</time>
      </trkpt>
      <trkpt lat="44.47776" lon="3.67352">
        <ele>1126.032</ele>
        <time>2021-01-11T15:55:23Z</time>
      </trkpt>
      <trkpt lat="44.47763" lon="3.67266">
        <ele>1114.766</ele>
        <time>2021-01-11T15:55:43Z</time>
      </trkpt>
      <trkpt lat="44.47739" lon="3.67257">
        <ele>1107.466</ele>
        <time>2021-01-11T15:56:03Z</time>
      </trkpt>
      <trkpt lat="44.47782" lon="3.67171">
        <ele>1097.545</ele>
        <time>2021-01-11T15:56:23Z</time>
      </trkpt>
      <trkpt lat="44.47782" lon="3.67154">
        <ele>1092.967</ele>
        <time>2021-01-11T15:56:43Z</time>
      </trkpt>
      <trkpt lat="44.47757" lon="3.67137">
        <ele>1087.189</ele>
        <time>2021-01-11T15:57:03Z</time>
      </trkpt>
      <trkpt lat="44.47782" lon="3.6712">
        <ele>1082.331</ele>
        <time>2021-01-11T15:57:23Z</time>
      </trkpt>
      <trkpt lat="44.4777" lon="3.67111">
        <ele>1080.493</ele>
        <time>2021-01-11T15:57:43Z</time>
      </trkpt>
      <trkpt lat="44.47721" lon="3.67103">
        <ele>1084.265</ele>
        <time>2021-01-11T15:58:03Z</time>
      </trkpt>
      <trkpt lat="44.47721" lon="3.67094">
        <ele>1084.021</ele>
        <time>2021-01-11T15:58:23Z</time>
      </trkpt>
      <trkpt lat="44.47818" lon="3.66991">
        <ele>1061.808</ele>
        <time>2021-01-11T15:58:43Z</time>
      </trkpt>
      <trkpt lat="44.47849" lon="3.66983">
        <ele>1059.855</ele>
        <time>2021-01-11T15:59:03Z</time>
      </trkpt>
      <trkpt lat="44.4788" lon="3.6694">
        <ele>1060.952</ele>
        <time>2021-01-11T15:59:23Z</time>
      </trkpt>
      <trkpt lat="44.47923" lon="3.66845">
        <ele>1070.046</ele>
        <time>2021-01-11T15:59:43Z</time>
      </trkpt>
      <trkpt lat="44.48008" lon="3.66777">
        <ele>1064.656</ele>
        <time>2021-01-11T16:00:03Z</time>
      </trkpt>
      <trkpt lat="44.48039" lon="3.66751">
        <ele>1064.085</ele>
        <time>2021-01-11T16:00:23Z</time>
      </trkpt>
      <trkpt lat="44.48088" lon="3.66648">
        <ele>1066.897</ele>
        <time>2021-01-11T16:00:43Z</time>
      </trkpt>
      <trkpt lat="44.48143" lon="3.66759">
        <ele>1070.259</ele>
        <time>2021-01-11T16:01:03Z</time>
      </trkpt>
      <trkpt lat="44.48302" lon="3.66837">
        <ele>1079.711</ele>
        <time>2021-01-11T16:01:23Z</time>
      </trkpt>
      <trkpt lat="44.48339" lon="3.66897">
        <ele>1077.362</ele>
        <time>2021-01-11T16:01:43Z</time>
      </trkpt>
      <trkpt lat="44.48364" lon="3.66914">
        <ele>1079.183</ele>
        <time>2021-01-11T16:02:03Z</time>
      </trkpt>
      <trkpt lat="44.48419" lon="3.66905">
        <ele>1087.211</ele>
        <time>2021-01-11T16:02:23Z</time>
      </trkpt>
      <trkpt lat="44.48486" lon="3.66948">
        <ele>1079.608</ele>
        <time>2021-01-11T16:02:43Z</time>
      </trkpt>
      <trkpt lat="44.48529" lon="3.66957">
        <ele>1079.982</ele>
        <time>2021-01-11T16:03:03Z</time>
      </trkpt>
      <trkpt lat="44.48584" lon="3.66914">
        <ele>1087.939</ele>
        <time>2021-01-11T16:03:23Z</time>
      </trkpt>
      <trkpt lat="44.48627" lon="3.66974">
        <ele>1082.493</ele>
        <time>2021-01-11T16:03:43Z</time>
      </trkpt>
      <trkpt lat="44.48676" lon="3.67">
        <ele>1083.463</ele>
        <time>2021-01-11T16:04:03Z</time>
      </trkpt>
      <trkpt lat="44.48713" lon="3.66965">
        <ele>1092.452</ele>
        <time>2021-01-11T16:04:23Z</time>
      </trkpt>
      <trkpt lat="44.48792" lon="3.66983">
        <ele>1095.064</ele>
        <time>2021-01-11T16:04:43Z</time>
      </trkpt>
      <trkpt lat="44.48829" lon="3.66965">
        <ele>1095.956</ele>
        <time>2021-01-11T16:05:03Z</time>
      </trkpt>
      <trkpt lat="44.48921" lon="3.66862">
        <ele>1102.248</ele>
        <time>2021-01-11T16:05:23Z</time>
      </trkpt>
      <trkpt lat="44.48939" lon="3.66819">
        <ele>1102.662</ele>
        <time>2021-01-11T16:05:43Z</time>
      </trkpt>
      <trkpt lat="44.48939" lon="3.66751">
        <ele>1116.483</ele>
        <time>2021-01-11T16:06:03Z</time>
      </trkpt>
      <trkpt lat="44.48976" lon="3.66716">
        <ele>1110.911</ele>
        <time>2021-01-11T16:06:23Z</time>
      </trkpt>
      <trkpt lat="44.49037" lon="3.66708">
        <ele>1102.308</ele>
        <time>2021-01-11T16:06:43Z</time>
      </trkpt>
      <trkpt lat="44.49129" lon="3.66802">
        <ele>1092.862</ele>
        <time>2021-01-11T16:07:03Z</time>
      </trkpt>
      <trkpt lat="44.49184" lon="3.66811">
        <ele>1096.089</ele>
        <time>2021-01-11T16:07:23Z</time>
      </trkpt>
      <trkpt lat="44.49202" lon="3.66716">
        <ele>1105.483</ele>
        <time>2021-01-11T16:07:43Z</time>
      </trkpt>
      <trkpt lat="44.49239" lon="3.66639">
        <ele>1115.173</ele>
        <time>2021-01-11T16:08:03Z</time>
      </trkpt>
      <trkpt lat="44.49313" lon="3.66588">
        <ele>1123.932</ele>
        <time>2021-01-11T16:08:23Z</time>
      </trkpt>
      <trkpt lat="44.49527" lon="3.66536">
        <ele>1152.194</ele>
        <time>2021-01-11T16:08:43Z</time>
      </trkpt>
      <trkpt lat="44.49404" lon="3.66416">
        <ele>1167.076</ele>
        <time>2021-01-11T16:09:03Z</time>
      </trkpt>
      <trkpt lat="44.49355" lon="3.66356">
        <ele>1167.678</ele>
        <time>2021-01-11T16:09:23Z</time>
      </trkpt>
      <trkpt lat="44.49141" lon="3.66322">
        <ele>1188.231</ele>
        <time>2021-01-11T16:09:43Z</time>
      </trkpt>
      <trkpt lat="44.48927" lon="3.6579">
        <ele>1220.361</ele>
        <time>2021-01-11T16:10:03Z</time>
      </trkpt>
      <trkpt lat="44.48915" lon="3.65721">
        <ele>1222.807</ele>
        <time>2021-01-11T16:10:23Z</time>
      </trkpt>
      <trkpt lat="44.48921" lon="3.65566">
        <ele>1226.008</ele>
        <time>2021-01-11T16:10:43Z</time>
      </trkpt>
      <trkpt lat="44.4889" lon="3.6542">
        <ele>1222.579</ele>
        <time>2021-01-11T16:11:03Z</time>
      </trkpt>
      <trkpt lat="44.48921" lon="3.6524">
        <ele>1221.266</ele>
        <time>2021-01-11T16:11:23Z</time>
      </trkpt>
      <trkpt lat="44.48921" lon="3.65043">
        <ele>1196.58</ele>
        <time>2021-01-11T16:11:43Z</time>
      </trkpt>
      <trkpt lat="44.48878" lon="3.64991">
        <ele>1187.39</ele>
        <time>2021-01-11T16:12:03Z</time>
      </trkpt>
      <trkpt lat="44.48884" lon="3.64966">
        <ele>1183.889</ele>
        <time>2021-01-11T16:12:23Z</time>
      </trkpt>
      <trkpt lat="44.48798" lon="3.65">
        <ele>1179.731</ele>
        <time>2021-01-11T16:12:43Z</time>
      </trkpt>
      <trkpt lat="44.48755" lon="3.64991">
        <ele>1178.023</ele>
        <time>2021-01-11T16:13:03Z</time>
      </trkpt>
      <trkpt lat="44.48743" lon="3.64914">
        <ele>1162.385</ele>
        <time>2021-01-11T16:13:23Z</time>
      </trkpt>
      <trkpt lat="44.48682" lon="3.6494">
        <ele>1173.097</ele>
        <time>2021-01-11T16:13:43Z</time>
      </trkpt>
      <trkpt lat="44.48639" lon="3.64905">
        <ele>1174.323</ele>
        <time>2021-01-11T16:14:03Z</time>
      </trkpt>
      <trkpt lat="44.48602" lon="3.64845">
        <ele>1178.525</ele>
        <time>2021-01-11T16:14:23Z</time>
      </trkpt>
      <trkpt lat="44.48602" lon="3.64811">
        <ele>1180.508</ele>
        <time>2021-01-11T16:14:43Z</time>
      </trkpt>
      <trkpt lat="44.48682" lon="3.64648">
        <ele>1167.775</ele>
        <time>2021-01-11T16:15:03Z</time>
      </trkpt>
      <trkpt lat="44.48694" lon="3.64528">
        <ele>1159.212</ele>
        <time>2021-01-11T16:15:23Z</time>
      </trkpt>
      <trkpt lat="44.4867" lon="3.64459">
        <ele>1161.456</ele>
        <time>2021-01-11T16:15:43Z</time>
      </trkpt>
      <trkpt lat="44.48596" lon="3.64305">
        <ele>1150.036</ele>
        <time>2021-01-11T16:16:03Z</time>
      </trkpt>
      <trkpt lat="44.48566" lon="3.64279">
        <ele>1148.885</ele>
        <time>2021-01-11T16:16:23Z</time>
      </trkpt>
      <trkpt lat="44.48486" lon="3.64262">
        <ele>1154.317</ele>
        <time>2021-01-11T16:16:43Z</time>
      </trkpt>
      <trkpt lat="44.48406" lon="3.64296">
        <ele>1173.599</ele>
        <time>2021-01-11T16:17:03Z</time>
      </trkpt>
      <trkpt lat="44.48388" lon="3.64287">
        <ele>1174.861</ele>
        <time>2021-01-11T16:17:23Z</time>
      </trkpt>
      <trkpt lat="44.48388" lon="3.64262">
        <ele>1178.167</ele>
        <time>2021-01-11T16:17:43Z</time>
      </trkpt>
      <trkpt lat="44.48431" lon="3.64202">
        <ele>1174.881</ele>
        <time>2021-01-11T16:18:03Z</time>
      </trkpt>
      <trkpt lat="44.48437" lon="3.64142">
        <ele>1184.619</ele>
        <time>2021-01-11T16:18:23Z</time>
      </trkpt>
      <trkpt lat="44.48394" lon="3.63884">
        <ele>1230.208</ele>
        <time>2021-01-11T16:18:43Z</time>
      </trkpt>
      <trkpt lat="44.48357" lon="3.63781">
        <ele>1250.522</ele>
        <time>2021-01-11T16:19:03Z</time>
      </trkpt>
      <trkpt lat="44.48345" lon="3.63841">
        <ele>1251.289</ele>
        <time>2021-01-11T16:19:23Z</time>
      </trkpt>
      <trkpt lat="44.48339" lon="3.6385">
        <ele>1253.763</ele>
        <time>2021-01-11T16:19:43Z</time>
      </trkpt>
      <trkpt lat="44.48333" lon="3.63841">
        <ele>1255.813</ele>
        <time>2021-01-11T16:20:03Z</time>
      </trkpt>
      <trkpt lat="44.48302" lon="3.63652">
        <ele>1282.582</ele>
        <time>2021-01-11T16:20:23Z</time>
      </trkpt>
      <trkpt lat="44.48253" lon="3.63532">
        <ele>1300.494</ele>
        <time>2021-01-11T16:20:43Z</time>
      </trkpt>
      <trkpt lat="44.4818" lon="3.63532">
        <ele>1312.946</ele>
        <time>2021-01-11T16:21:03Z</time>
      </trkpt>
      <trkpt lat="44.48204" lon="3.63438">
        <ele>1311.368</ele>
        <time>2021-01-11T16:21:23Z</time>
      </trkpt>
      <trkpt lat="44.48259" lon="3.63352">
        <ele>1310.911</ele>
        <time>2021-01-11T16:21:43Z</time>
      </trkpt>
      <trkpt lat="44.48266" lon="3.63275">
        <ele>1310.221</ele>
        <time>2021-01-11T16:22:03Z</time>
      </trkpt>
      <trkpt lat="44.48229" lon="3.63146">
        <ele>1314.103</ele>
        <time>2021-01-11T16:22:23Z</time>
      </trkpt>
      <trkpt lat="44.48223" lon="3.62957">
        <ele>1316.208</ele>
        <time>2021-01-11T16:22:43Z</time>
      </trkpt>
      <trkpt lat="44.48186" lon="3.62863">
        <ele>1324.587</ele>
        <time>2021-01-11T16:23:03Z</time>
      </trkpt>
      <trkpt lat="44.48125" lon="3.62743">
        <ele>1332.614</ele>
        <time>2021-01-11T16:23:23Z</time>
      </trkpt>
      <trkpt lat="44.47941" lon="3.62751">
        <ele>1339.128</ele>
        <time>2021-01-11T16:23:43Z</time>
      </trkpt>
      <trkpt lat="44.4788" lon="3.62777">
        <ele>1338.998</ele>
        <time>2021-01-11T16:24:03Z</time>
      </trkpt>
      <trkpt lat="44.47806" lon="3.62888">
        <ele>1348.037</ele>
        <time>2021-01-11T16:24:23Z</time>
      </trkpt>
      <trkpt lat="44.47672" lon="3.63009">
        <ele>1359.469</ele>
        <time>2021-01-11T16:24:43Z</time>
      </trkpt>
      <trkpt lat="44.4758" lon="3.63155">
        <ele>1364.911</ele>
        <time>2021-01-11T16:25:03Z</time>
      </trkpt>
      <trkpt lat="44.4742" lon="3.63189">
        <ele>1372.293</ele>
        <time>2021-01-11T16:25:23Z</time>
      </trkpt>
      <trkpt lat="44.47359" lon="3.63232">
        <ele>1372.983</ele>
        <time>2021-01-11T16:25:43Z</time>
      </trkpt>
      <trkpt lat="44.47243" lon="3.63343">
        <ele>1370.825</ele>
        <time>2021-01-11T16:26:03Z</time>
      </trkpt>
      <trkpt lat="44.47182" lon="3.63369">
        <ele>1372.417</ele>
        <time>2021-01-11T16:26:23Z</time>
      </trkpt>
      <trkpt lat="44.47151" lon="3.63361">
        <ele>1371.508</ele>
        <time>2021-01-11T16:26:43Z</time>
      </trkpt>
      <trkpt lat="44.47133" lon="3.63343">
        <ele>1373.284</ele>
        <time>2021-01-11T16:27:03Z</time>
      </trkpt>
      <trkpt lat="44.47022" lon="3.63086">
        <ele>1386.281</ele>
        <time>2021-01-11T16:27:23Z</time>
      </trkpt>
      <trkpt lat="44.46992" lon="3.63052">
        <ele>1387.615</ele>
        <time>2021-01-11T16:27:43Z</time>
      </trkpt>
      <trkpt lat="44.46845" lon="3.63017">
        <ele>1391.635</ele>
        <time>2021-01-11T16:28:03Z</time>
      </trkpt>
      <trkpt lat="44.46667" lon="3.62949">
        <ele>1386.094</ele>
        <time>2021-01-11T16:28:23Z</time>
      </trkpt>
      <trkpt lat="44.46594" lon="3.6294">
        <ele>1385.736</ele>
        <time>2021-01-11T16:28:43Z</time>
      </trkpt>
      <trkpt lat="44.46416" lon="3.6294">
        <ele>1394.648</ele>
        <time>2021-01-11T16:29:03Z</time>
      </trkpt>
      <trkpt lat="44.46171" lon="3.62991">
        <ele>1409.71</ele>
        <time>2021-01-11T16:29:23Z</time>
      </trkpt>
      <trkpt lat="44.45975" lon="3.62983">
        <ele>1420.083</ele>
        <time>2021-01-11T16:29:43Z</time>
      </trkpt>
      <trkpt lat="44.45889" lon="3.62966">
        <ele>1424.725</ele>
        <time>2021-01-11T16:30:03Z</time>
      </trkpt>
      <trkpt lat="44.45809" lon="3.62897">
        <ele>1431.317</ele>
        <time>2021-01-11T16:30:23Z</time>
      </trkpt>
      <trkpt lat="44.4576" lon="3.62803">
        <ele>1433.908</ele>
        <time>2021-01-11T16:30:43Z</time>
      </trkpt>
      <trkpt lat="44.4573" lon="3.6276">
        <ele>1435.284</ele>
        <time>2021-01-11T16:31:03Z</time>
      </trkpt>
      <trkpt lat="44.45705" lon="3.62751">
        <ele>1435.961</ele>
        <time>2021-01-11T16:31:23Z</time>
      </trkpt>
      <trkpt lat="44.45687" lon="3.62691">
        <ele>1440.985</ele>
        <time>2021-01-11T16:31:43Z</time>
      </trkpt>
      <trkpt lat="44.45638" lon="3.62631">
        <ele>1442.835</ele>
        <time>2021-01-11T16:32:03Z</time>
      </trkpt>
      <trkpt lat="44.45417" lon="3.62605">
        <ele>1453.074</ele>
        <time>2021-01-11T16:32:23Z</time>
      </trkpt>
      <trkpt lat="44.45258" lon="3.62605">
        <ele>1450.986</ele>
        <time>2021-01-11T16:32:43Z</time>
      </trkpt>
      <trkpt lat="44.45172" lon="3.62579">
        <ele>1445.438</ele>
        <time>2021-01-11T16:33:03Z</time>
      </trkpt>
      <trkpt lat="44.45093" lon="3.62648">
        <ele>1440.05</ele>
        <time>2021-01-11T16:33:23Z</time>
      </trkpt>
      <trkpt lat="44.44976" lon="3.62691">
        <ele>1436.078</ele>
        <time>2021-01-11T16:33:43Z</time>
      </trkpt>
      <trkpt lat="44.44817" lon="3.62794">
        <ele>1427.233</ele>
        <time>2021-01-11T16:34:03Z</time>
      </trkpt>
      <trkpt lat="44.44768" lon="3.62794">
        <ele>1424.126</ele>
        <time>2021-01-11T16:34:23Z</time>
      </trkpt>
      <trkpt lat="44.447" lon="3.62725">
        <ele>1419.008</ele>
        <time>2021-01-11T16:34:43Z</time>
      </trkpt>
      <trkpt lat="44.44615" lon="3.62605">
        <ele>1407.813</ele>
        <time>2021-01-11T16:35:03Z</time>
      </trkpt>
      <trkpt lat="44.44541" lon="3.62434">
        <ele>1414.49</ele>
        <time>2021-01-11T16:35:23Z</time>
      </trkpt>
      <trkpt lat="44.44498" lon="3.62313">
        <ele>1414.974</ele>
        <time>2021-01-11T16:35:43Z</time>
      </trkpt>
      <trkpt lat="44.44437" lon="3.6221">
        <ele>1416.724</ele>
        <time>2021-01-11T16:36:03Z</time>
      </trkpt>
      <trkpt lat="44.44376" lon="3.62125">
        <ele>1415.063</ele>
        <time>2021-01-11T16:36:23Z</time>
      </trkpt>
      <trkpt lat="44.44265" lon="3.62022">
        <ele>1411.325</ele>
        <time>2021-01-11T16:36:43Z</time>
      </trkpt>
      <trkpt lat="44.44265" lon="3.61979">
        <ele>1410.697</ele>
        <time>2021-01-11T16:37:03Z</time>
      </trkpt>
      <trkpt lat="44.44235" lon="3.61901">
        <ele>1406.879</ele>
        <time>2021-01-11T16:37:23Z</time>
      </trkpt>
      <trkpt lat="44.43953" lon="3.61352">
        <ele>1377.492</ele>
        <time>2021-01-11T16:37:43Z</time>
      </trkpt>
      <trkpt lat="44.43487" lon="3.60966">
        <ele>1315.473</ele>
        <time>2021-01-11T16:38:03Z</time>
      </trkpt>
      <trkpt lat="44.43444" lon="3.6094">
        <ele>1308.62</ele>
        <time>2021-01-11T16:38:23Z</time>
      </trkpt>
      <trkpt lat="44.43334" lon="3.60914">
        <ele>1294.208</ele>
        <time>2021-01-11T16:38:43Z</time>
      </trkpt>
      <trkpt lat="44.4323" lon="3.60837">
        <ele>1280.045</ele>
        <time>2021-01-11T16:39:03Z</time>
      </trkpt>
      <trkpt lat="44.43119" lon="3.60751">
        <ele>1270.222</ele>
        <time>2021-01-11T16:39:23Z</time>
      </trkpt>
      <trkpt lat="44.43015" lon="3.60631">
        <ele>1256.486</ele>
        <time>2021-01-11T16:39:43Z</time>
      </trkpt>
      <trkpt lat="44.43101" lon="3.60314">
        <ele>1246.466</ele>
        <time>2021-01-11T16:40:03Z</time>
      </trkpt>
      <trkpt lat="44.43113" lon="3.60245">
        <ele>1244.025</ele>
        <time>2021-01-11T16:40:23Z</time>
      </trkpt>
      <trkpt lat="44.43144" lon="3.60142">
        <ele>1240.967</ele>
        <time>2021-01-11T16:40:43Z</time>
      </trkpt>
      <trkpt lat="44.43236" lon="3.59979">
        <ele>1231.679</ele>
        <time>2021-01-11T16:41:03Z</time>
      </trkpt>
      <trkpt lat="44.43279" lon="3.59936">
        <ele>1227.711</ele>
        <time>2021-01-11T16:41:23Z</time>
      </trkpt>
      <trkpt lat="44.43303" lon="3.59919">
        <ele>1224.437</ele>
        <time>2021-01-11T16:41:43Z</time>
      </trkpt>
      <trkpt lat="44.43395" lon="3.59927">
        <ele>1221.649</ele>
        <time>2021-01-11T16:42:03Z</time>
      </trkpt>
      <trkpt lat="44.4334" lon="3.59824">
        <ele>1207.913</ele>
        <time>2021-01-11T16:42:23Z</time>
      </trkpt>
      <trkpt lat="44.43352" lon="3.5979">
        <ele>1203.108</ele>
        <time>2021-01-11T16:42:43Z</time>
      </trkpt>
      <trkpt lat="44.43383" lon="3.59807">
        <ele>1204.649</ele>
        <time>2021-01-11T16:43:03Z</time>
      </trkpt>
      <trkpt lat="44.43401" lon="3.59799">
        <ele>1202.896</ele>
        <time>2021-01-11T16:43:23Z</time>
      </trkpt>
      <trkpt lat="44.4342" lon="3.59756">
        <ele>1204.03</ele>
        <time>2021-01-11T16:43:43Z</time>
      </trkpt>
      <trkpt lat="44.43371" lon="3.59678">
        <ele>1206.12</ele>
        <time>2021-01-11T16:44:03Z</time>
      </trkpt>
      <trkpt lat="44.4334" lon="3.59532">
        <ele>1212.859</ele>
        <time>2021-01-11T16:44:23Z</time>
      </trkpt>
      <trkpt lat="44.43266" lon="3.59541">
        <ele>1202.411</ele>
        <time>2021-01-11T16:44:43Z</time>
      </trkpt>
      <trkpt lat="44.43248" lon="3.59524">
        <ele>1201.953</ele>
        <time>2021-01-11T16:45:03Z</time>
      </trkpt>
      <trkpt lat="44.43181" lon="3.59429">
        <ele>1197.835</ele>
        <time>2021-01-11T16:45:23Z</time>
      </trkpt>
      <trkpt lat="44.43162" lon="3.59344">
        <ele>1190.127</ele>
        <time>2021-01-11T16:45:43Z</time>
      </trkpt>
      <trkpt lat="44.43138" lon="3.59318">
        <ele>1182.068</ele>
        <time>2021-01-11T16:46:03Z</time>
      </trkpt>
      <trkpt lat="44.43125" lon="3.59292">
        <ele>1175.414</ele>
        <time>2021-01-11T16:46:23Z</time>
      </trkpt>
      <trkpt lat="44.43156" lon="3.59172">
        <ele>1168.108</ele>
        <time>2021-01-11T16:46:43Z</time>
      </trkpt>
      <trkpt lat="44.43125" lon="3.59112">
        <ele>1155.688</ele>
        <time>2021-01-11T16:47:03Z</time>
      </trkpt>
      <trkpt lat="44.43107" lon="3.58957">
        <ele>1143.085</ele>
        <time>2021-01-11T16:47:23Z</time>
      </trkpt>
      <trkpt lat="44.43113" lon="3.58906">
        <ele>1140.919</ele>
        <time>2021-01-11T16:47:43Z</time>
      </trkpt>
      <trkpt lat="44.43089" lon="3.58794">
        <ele>1124.069</ele>
        <time>2021-01-11T16:48:03Z</time>
      </trkpt>
      <trkpt lat="44.4307" lon="3.58803">
        <ele>1119.418</ele>
        <time>2021-01-11T16:48:23Z</time>
      </trkpt>
      <trkpt lat="44.4304" lon="3.58717">
        <ele>1102.81</ele>
        <time>2021-01-11T16:48:43Z</time>
      </trkpt>
      <trkpt lat="44.43027" lon="3.587">
        <ele>1103.132</ele>
        <time>2021-01-11T16:49:03Z</time>
      </trkpt>
      <trkpt lat="44.43015" lon="3.58708">
        <ele>1107.614</ele>
        <time>2021-01-11T16:49:23Z</time>
      </trkpt>
      <trkpt lat="44.43034" lon="3.5864">
        <ele>1108.827</ele>
        <time>2021-01-11T16:49:43Z</time>
      </trkpt>
      <trkpt lat="44.43015" lon="3.58648">
        <ele>1111.568</ele>
        <time>2021-01-11T16:50:03Z</time>
      </trkpt>
      <trkpt lat="44.42997" lon="3.58691">
        <ele>1114.514</ele>
        <time>2021-01-11T16:50:23Z</time>
      </trkpt>
      <trkpt lat="44.42985" lon="3.58803">
        <ele>1122.908</ele>
        <time>2021-01-11T16:50:43Z</time>
      </trkpt>
      <trkpt lat="44.42966" lon="3.58708">
        <ele>1126.928</ele>
        <time>2021-01-11T16:51:03Z</time>
      </trkpt>
      <trkpt lat="44.42911" lon="3.58623">
        <ele>1132.355</ele>
        <time>2021-01-11T16:51:23Z</time>
      </trkpt>
      <trkpt lat="44.42795" lon="3.5858">
        <ele>1136.799</ele>
        <time>2021-01-11T16:51:43Z</time>
      </trkpt>
      <trkpt lat="44.42844" lon="3.58477">
        <ele>1137.419</ele>
        <time>2021-01-11T16:52:03Z</time>
      </trkpt>
      <trkpt lat="44.42874" lon="3.58451">
        <ele>1139.068</ele>
        <time>2021-01-11T16:52:23Z</time>
      </trkpt>
      <trkpt lat="44.42942" lon="3.58434">
        <ele>1139.92</ele>
        <time>2021-01-11T16:52:43Z</time>
      </trkpt>
      <trkpt lat="44.42954" lon="3.58382">
        <ele>1144.472</ele>
        <time>2021-01-11T16:53:03Z</time>
      </trkpt>
      <trkpt lat="44.42978" lon="3.58219">
        <ele>1140.484</ele>
        <time>2021-01-11T16:53:23Z</time>
      </trkpt>
      <trkpt lat="44.42972" lon="3.58176">
        <ele>1140.045</ele>
        <time>2021-01-11T16:53:43Z</time>
      </trkpt>
      <trkpt lat="44.4296" lon="3.58151">
        <ele>1139.047</ele>
        <time>2021-01-11T16:54:03Z</time>
      </trkpt>
      <trkpt lat="44.42954" lon="3.58065">
        <ele>1131.311</ele>
        <time>2021-01-11T16:54:23Z</time>
      </trkpt>
      <trkpt lat="44.42935" lon="3.5803">
        <ele>1127.008</ele>
        <time>2021-01-11T16:54:43Z</time>
      </trkpt>
      <trkpt lat="44.42923" lon="3.57979">
        <ele>1124.43</ele>
        <time>2021-01-11T16:55:03Z</time>
      </trkpt>
      <trkpt lat="44.4296" lon="3.57953">
        <ele>1125.437</ele>
        <time>2021-01-11T16:55:23Z</time>
      </trkpt>
      <trkpt lat="44.4304" lon="3.57927">
        <ele>1127.971</ele>
        <time>2021-01-11T16:55:43Z</time>
      </trkpt>
      <trkpt lat="44.43101" lon="3.57893">
        <ele>1126.061</ele>
        <time>2021-01-11T16:56:03Z</time>
      </trkpt>
      <trkpt lat="44.43125" lon="3.57867">
        <ele>1131.31</ele>
        <time>2021-01-11T16:56:23Z</time>
      </trkpt>
      <trkpt lat="44.43175" lon="3.57782">
        <ele>1143.512</ele>
        <time>2021-01-11T16:56:43Z</time>
      </trkpt>
      <trkpt lat="44.43199" lon="3.57704">
        <ele>1151.344</ele>
        <time>2021-01-11T16:57:03Z</time>
      </trkpt>
      <trkpt lat="44.43285" lon="3.57558">
        <ele>1159.446</ele>
        <time>2021-01-11T16:57:23Z</time>
      </trkpt>
      <trkpt lat="44.43732" lon="3.56923">
        <ele>1159.138</ele>
        <time>2021-01-11T16:57:43Z</time>
      </trkpt>
      <trkpt lat="44.43996" lon="3.5664">
        <ele>1152.37</ele>
        <time>2021-01-11T16:58:03Z</time>
      </trkpt>
      <trkpt lat="44.44075" lon="3.56511">
        <ele>1144.717</ele>
        <time>2021-01-11T16:58:23Z</time>
      </trkpt>
      <trkpt lat="44.44186" lon="3.56365">
        <ele>1114.708</ele>
        <time>2021-01-11T16:58:43Z</time>
      </trkpt>
      <trkpt lat="44.44186" lon="3.56348">
        <ele>1112.859</ele>
        <time>2021-01-11T16:59:03Z</time>
      </trkpt>
      <trkpt lat="44.44173" lon="3.56314">
        <ele>1109.266</ele>
        <time>2021-01-11T16:59:23Z</time>
      </trkpt>
      <trkpt lat="44.44124" lon="3.56305">
        <ele>1119.51</ele>
        <time>2021-01-11T16:59:43Z</time>
      </trkpt>
      <trkpt lat="44.44094" lon="3.56288">
        <ele>1121.27</ele>
        <time>2021-01-11T17:00:03Z</time>
      </trkpt>
      <trkpt lat="44.43928" lon="3.56048">
        <ele>1077.929</ele>
        <time>2021-01-11T17:00:23Z</time>
      </trkpt>
      <trkpt lat="44.43836" lon="3.56031">
        <ele>1073.931</ele>
        <time>2021-01-11T17:00:43Z</time>
      </trkpt>
      <trkpt lat="44.43653" lon="3.55902">
        <ele>1056.233</ele>
        <time>2021-01-11T17:01:03Z</time>
      </trkpt>
      <trkpt lat="44.43579" lon="3.55867">
        <ele>1050.635</ele>
        <time>2021-01-11T17:01:23Z</time>
      </trkpt>
      <trkpt lat="44.43524" lon="3.55807">
        <ele>1040.128</ele>
        <time>2021-01-11T17:01:43Z</time>
      </trkpt>
      <trkpt lat="44.43346" lon="3.55704">
        <ele>1036.289</ele>
        <time>2021-01-11T17:02:03Z</time>
      </trkpt>
      <trkpt lat="44.43273" lon="3.55722">
        <ele>1035.017</ele>
        <time>2021-01-11T17:02:23Z</time>
      </trkpt>
      <trkpt lat="44.43162" lon="3.55773">
        <ele>1026.708</ele>
        <time>2021-01-11T17:02:43Z</time>
      </trkpt>
      <trkpt lat="44.43162" lon="3.55902">
        <ele>1047.638</ele>
        <time>2021-01-11T17:03:03Z</time>
      </trkpt>
      <trkpt lat="44.43144" lon="3.55953">
        <ele>1050.075</ele>
        <time>2021-01-11T17:03:23Z</time>
      </trkpt>
      <trkpt lat="44.43046" lon="3.55936">
        <ele>1051.239</ele>
        <time>2021-01-11T17:03:43Z</time>
      </trkpt>
      <trkpt lat="44.43009" lon="3.55902">
        <ele>1053.969</ele>
        <time>2021-01-11T17:04:03Z</time>
      </trkpt>
      <trkpt lat="44.42978" lon="3.55833">
        <ele>1059.858</ele>
        <time>2021-01-11T17:04:23Z</time>
      </trkpt>
      <trkpt lat="44.42972" lon="3.55799">
        <ele>1062.32</ele>
        <time>2021-01-11T17:04:43Z</time>
      </trkpt>
      <trkpt lat="44.42972" lon="3.55764">
        <ele>1063.562</ele>
        <time>2021-01-11T17:05:03Z</time>
      </trkpt>
      <trkpt lat="44.43021" lon="3.55558">
        <ele>1054.884</ele>
        <time>2021-01-11T17:05:23Z</time>
      </trkpt>
      <trkpt lat="44.43021" lon="3.55507">
        <ele>1053.637</ele>
        <time>2021-01-11T17:05:43Z</time>
      </trkpt>
      <trkpt lat="44.42991" lon="3.55473">
        <ele>1056.849</ele>
        <time>2021-01-11T17:06:03Z</time>
      </trkpt>
      <trkpt lat="44.42923" lon="3.55455">
        <ele>1061.513</ele>
        <time>2021-01-11T17:06:23Z</time>
      </trkpt>
      <trkpt lat="44.42807" lon="3.55481">
        <ele>1060.208</ele>
        <time>2021-01-11T17:06:43Z</time>
      </trkpt>
      <trkpt lat="44.4277" lon="3.55447">
        <ele>1053.739</ele>
        <time>2021-01-11T17:07:03Z</time>
      </trkpt>
      <trkpt lat="44.42733" lon="3.5543">
        <ele>1048.346</ele>
        <time>2021-01-11T17:07:23Z</time>
      </trkpt>
      <trkpt lat="44.42703" lon="3.55438">
        <ele>1046.57</ele>
        <time>2021-01-11T17:07:43Z</time>
      </trkpt>
      <trkpt lat="44.42598" lon="3.55541">
        <ele>1045.91</ele>
        <time>2021-01-11T17:08:03Z</time>
      </trkpt>
      <trkpt lat="44.42414" lon="3.55696">
        <ele>1066.569</ele>
        <time>2021-01-11T17:08:23Z</time>
      </trkpt>
      <trkpt lat="44.42304" lon="3.55653">
        <ele>1076.681</ele>
        <time>2021-01-11T17:08:43Z</time>
      </trkpt>
      <trkpt lat="44.42249" lon="3.55653">
        <ele>1078.533</ele>
        <time>2021-01-11T17:09:03Z</time>
      </trkpt>
      <trkpt lat="44.42053" lon="3.55773">
        <ele>1085.085</ele>
        <time>2021-01-11T17:09:23Z</time>
      </trkpt>
      <trkpt lat="44.42004" lon="3.55516">
        <ele>1075.563</ele>
        <time>2021-01-11T17:09:43Z</time>
      </trkpt>
      <trkpt lat="44.41973" lon="3.55301">
        <ele>1077.144</ele>
        <time>2021-01-11T17:10:03Z</time>
      </trkpt>
      <trkpt lat="44.41973" lon="3.55189">
        <ele>1075.918</ele>
        <time>2021-01-11T17:10:23Z</time>
      </trkpt>
      <trkpt lat="44.41955" lon="3.55078">
        <ele>1068.508</ele>
        <time>2021-01-11T17:10:43Z</time>
      </trkpt>
      <trkpt lat="44.41949" lon="3.55061">
        <ele>1067.432</ele>
        <time>2021-01-11T17:11:03Z</time>
      </trkpt>
      <trkpt lat="44.41875" lon="3.54537">
        <ele>1054.319</ele>
        <time>2021-01-11T17:11:23Z</time>
      </trkpt>
      <trkpt lat="44.41881" lon="3.54365">
        <ele>1042.373</ele>
        <time>2021-01-11T17:11:43Z</time>
      </trkpt>
      <trkpt lat="44.41857" lon="3.54314">
        <ele>1041.653</ele>
        <time>2021-01-11T17:12:03Z</time>
      </trkpt>
      <trkpt lat="44.41844" lon="3.54245">
        <ele>1043.722</ele>
        <time>2021-01-11T17:12:23Z</time>
      </trkpt>
      <trkpt lat="44.41863" lon="3.54099">
        <ele>1046.634</ele>
        <time>2021-01-11T17:12:43Z</time>
      </trkpt>
      <trkpt lat="44.41857" lon="3.53816">
        <ele>1066.326</ele>
        <time>2021-01-11T17:13:03Z</time>
      </trkpt>
      <trkpt lat="44.4182" lon="3.53747">
        <ele>1066.018</ele>
        <time>2021-01-11T17:13:23Z</time>
      </trkpt>
      <trkpt lat="44.41746" lon="3.53713">
        <ele>1062.712</ele>
        <time>2021-01-11T17:13:43Z</time>
      </trkpt>
      <trkpt lat="44.41654" lon="3.53619">
        <ele>1073.632</ele>
        <time>2021-01-11T17:14:03Z</time>
      </trkpt>
      <trkpt lat="44.41618" lon="3.53602">
        <ele>1074.205</ele>
        <time>2021-01-11T17:14:23Z</time>
      </trkpt>
      <trkpt lat="44.41575" lon="3.53602">
        <ele>1076.208</ele>
        <time>2021-01-11T17:14:43Z</time>
      </trkpt>
      <trkpt lat="44.41507" lon="3.53636">
        <ele>1080.567</ele>
        <time>2021-01-11T17:15:03Z</time>
      </trkpt>
      <trkpt lat="44.41489" lon="3.53627">
        <ele>1091.584</ele>
        <time>2021-01-11T17:15:23Z</time>
      </trkpt>
      <trkpt lat="44.41556" lon="3.53541">
        <ele>1089.028</ele>
        <time>2021-01-11T17:15:43Z</time>
      </trkpt>
      <trkpt lat="44.41568" lon="3.53516">
        <ele>1087.938</ele>
        <time>2021-01-11T17:16:03Z</time>
      </trkpt>
      <trkpt lat="44.41544" lon="3.53275">
        <ele>1077.237</ele>
        <time>2021-01-11T17:16:23Z</time>
      </trkpt>
      <trkpt lat="44.41532" lon="3.53001">
        <ele>1063.849</ele>
        <time>2021-01-11T17:16:43Z</time>
      </trkpt>
      <trkpt lat="44.41532" lon="3.52846">
        <ele>1052.111</ele>
        <time>2021-01-11T17:17:03Z</time>
      </trkpt>
      <trkpt lat="44.41483" lon="3.52666">
        <ele>1040.763</ele>
        <time>2021-01-11T17:17:23Z</time>
      </trkpt>
      <trkpt lat="44.41483" lon="3.52486">
        <ele>1037.216</ele>
        <time>2021-01-11T17:17:43Z</time>
      </trkpt>
      <trkpt lat="44.41385" lon="3.52271">
        <ele>1028.176</ele>
        <time>2021-01-11T17:18:03Z</time>
      </trkpt>
      <trkpt lat="44.41348" lon="3.52151">
        <ele>1025.213</ele>
        <time>2021-01-11T17:18:23Z</time>
      </trkpt>
      <trkpt lat="44.41323" lon="3.52065">
        <ele>1022.008</ele>
        <time>2021-01-11T17:18:43Z</time>
      </trkpt>
      <trkpt lat="44.4128" lon="3.51756">
        <ele>1020.867</ele>
        <time>2021-01-11T17:19:03Z</time>
      </trkpt>
      <trkpt lat="44.41219" lon="3.5167">
        <ele>1027.064</ele>
        <time>2021-01-11T17:19:23Z</time>
      </trkpt>
      <trkpt lat="44.41158" lon="3.51645">
        <ele>1027.268</ele>
        <time>2021-01-11T17:19:43Z</time>
      </trkpt>
      <trkpt lat="44.41115" lon="3.5161">
        <ele>1025.018</ele>
        <time>2021-01-11T17:20:03Z</time>
      </trkpt>
      <trkpt lat="44.41066" lon="3.51516">
        <ele>1024.537</ele>
        <time>2021-01-11T17:20:23Z</time>
      </trkpt>
      <trkpt lat="44.41066" lon="3.51464">
        <ele>1023.639</ele>
        <time>2021-01-11T17:20:43Z</time>
      </trkpt>
      <trkpt lat="44.40833" lon="3.51267">
        <ele>1007.841</ele>
        <time>2021-01-11T17:21:03Z</time>
      </trkpt>
      <trkpt lat="44.40729" lon="3.5131">
        <ele>1007.463</ele>
        <time>2021-01-11T17:21:23Z</time>
      </trkpt>
      <trkpt lat="44.4063" lon="3.51396">
        <ele>1001.041</ele>
        <time>2021-01-11T17:21:43Z</time>
      </trkpt>
      <trkpt lat="44.40606" lon="3.51404">
        <ele>998.781</ele>
        <time>2021-01-11T17:22:03Z</time>
      </trkpt>
      <trkpt lat="44.40502" lon="3.51361">
        <ele>989.209</ele>
        <time>2021-01-11T17:22:23Z</time>
      </trkpt>
      <trkpt lat="44.40502" lon="3.51258">
        <ele>992.008</ele>
        <time>2021-01-11T17:22:43Z</time>
      </trkpt>
      <trkpt lat="44.40496" lon="3.51207">
        <ele>993.22</ele>
        <time>2021-01-11T17:23:03Z</time>
      </trkpt>
      <trkpt lat="44.40459" lon="3.51112">
        <ele>996.037</ele>
        <time>2021-01-11T17:23:23Z</time>
      </trkpt>
      <trkpt lat="44.40459" lon="3.51044">
        <ele>999.151</ele>
        <time>2021-01-11T17:23:43Z</time>
      </trkpt>
      <trkpt lat="44.40502" lon="3.50881">
        <ele>1002.211</ele>
        <time>2021-01-11T17:24:03Z</time>
      </trkpt>
      <trkpt lat="44.40545" lon="3.50572">
        <ele>1010.01</ele>
        <time>2021-01-11T17:24:23Z</time>
      </trkpt>
      <trkpt lat="44.40716" lon="3.50211">
        <ele>1026.922</ele>
        <time>2021-01-11T17:24:43Z</time>
      </trkpt>
      <trkpt lat="44.40827" lon="3.49894">
        <ele>1036.384</ele>
        <time>2021-01-11T17:25:03Z</time>
      </trkpt>
      <trkpt lat="44.40919" lon="3.4955">
        <ele>1050.246</ele>
        <time>2021-01-11T17:25:23Z</time>
      </trkpt>
      <trkpt lat="44.40943" lon="3.4949">
        <ele>1049.767</ele>
        <time>2021-01-11T17:25:43Z</time>
      </trkpt>
      <trkpt lat="44.40943" lon="3.49267">
        <ele>1043.681</ele>
        <time>2021-01-11T17:26:03Z</time>
      </trkpt>
      <trkpt lat="44.40968" lon="3.49035">
        <ele>1038.819</ele>
        <time>2021-01-11T17:26:23Z</time>
      </trkpt>
      <trkpt lat="44.40943" lon="3.48924">
        <ele>1032.208</ele>
        <time>2021-01-11T17:26:43Z</time>
      </trkpt>
      <trkpt lat="44.40949" lon="3.48872">
        <ele>1030.982</ele>
        <time>2021-01-11T17:27:03Z</time>
      </trkpt>
      <trkpt lat="44.40937" lon="3.48761">
        <ele>1028.149</ele>
        <time>2021-01-11T17:27:23Z</time>
      </trkpt>
      <trkpt lat="44.40943" lon="3.48675">
        <ele>1028.723</ele>
        <time>2021-01-11T17:27:43Z</time>
      </trkpt>
      <trkpt lat="44.40998" lon="3.48538">
        <ele>1028.043</ele>
        <time>2021-01-11T17:28:03Z</time>
      </trkpt>
      <trkpt lat="44.41115" lon="3.48332">
        <ele>1024.232</ele>
        <time>2021-01-11T17:28:23Z</time>
      </trkpt>
      <trkpt lat="44.41127" lon="3.48254">
        <ele>1027.144</ele>
        <time>2021-01-11T17:28:43Z</time>
      </trkpt>
      <trkpt lat="44.41164" lon="3.48177">
        <ele>1030.416</ele>
        <time>2021-01-11T17:29:03Z</time>
      </trkpt>
      <trkpt lat="44.41256" lon="3.48091">
        <ele>1032.338</ele>
        <time>2021-01-11T17:29:23Z</time>
      </trkpt>
      <trkpt lat="44.4128" lon="3.48005">
        <ele>1036.814</ele>
        <time>2021-01-11T17:29:43Z</time>
      </trkpt>
      <trkpt lat="44.41293" lon="3.4792">
        <ele>1038.854</ele>
        <time>2021-01-11T17:30:03Z</time>
      </trkpt>
      <trkpt lat="44.41286" lon="3.47808">
        <ele>1041.409</ele>
        <time>2021-01-11T17:30:23Z</time>
      </trkpt>
      <trkpt lat="44.41268" lon="3.47696">
        <ele>1044.608</ele>
        <time>2021-01-11T17:30:43Z</time>
      </trkpt>
      <trkpt lat="44.41286" lon="3.47636">
        <ele>1046.997</ele>
        <time>2021-01-11T17:31:03Z</time>
      </trkpt>
      <trkpt lat="44.41397" lon="3.47473">
        <ele>1042.144</ele>
        <time>2021-01-11T17:31:23Z</time>
      </trkpt>
      <trkpt lat="44.41391" lon="3.47396">
        <ele>1042.928</ele>
        <time>2021-01-11T17:31:43Z</time>
      </trkpt>
      <trkpt lat="44.41305" lon="3.47336">
        <ele>1044.138</ele>
        <time>2021-01-11T17:32:03Z</time>
      </trkpt>
      <trkpt lat="44.41231" lon="3.47242">
        <ele>1044.447</ele>
        <time>2021-01-11T17:32:23Z</time>
      </trkpt>
      <trkpt lat="44.41219" lon="3.47156">
        <ele>1043.719</ele>
        <time>2021-01-11T17:32:43Z</time>
      </trkpt>
      <trkpt lat="44.41207" lon="3.47113">
        <ele>1045.561</ele>
        <time>2021-01-11T17:33:03Z</time>
      </trkpt>
      <trkpt lat="44.41004" lon="3.46804">
        <ele>1025.033</ele>
        <time>2021-01-11T17:33:23Z</time>
      </trkpt>
      <trkpt lat="44.40949" lon="3.46752">
        <ele>1020.287</ele>
        <time>2021-01-11T17:33:43Z</time>
      </trkpt>
      <trkpt lat="44.40894" lon="3.46778">
        <ele>1022.642</ele>
        <time>2021-01-11T17:34:03Z</time>
      </trkpt>
      <trkpt lat="44.40876" lon="3.46761">
        <ele>1022.326</ele>
        <time>2021-01-11T17:34:23Z</time>
      </trkpt>
      <trkpt lat="44.40876" lon="3.46718">
        <ele>1019.208</ele>
        <time>2021-01-11T17:34:43Z</time>
      </trkpt>
      <trkpt lat="44.40839" lon="3.46649">
        <ele>1018.564</ele>
        <time>2021-01-11T17:35:03Z</time>
      </trkpt>
      <trkpt lat="44.40778" lon="3.46589">
        <ele>1025.081</ele>
        <time>2021-01-11T17:35:23Z</time>
      </trkpt>
      <trkpt lat="44.4071" lon="3.46572">
        <ele>1031.855</ele>
        <time>2021-01-11T17:35:43Z</time>
      </trkpt>
      <trkpt lat="44.40698" lon="3.4646">
        <ele>1036.625</ele>
        <time>2021-01-11T17:36:03Z</time>
      </trkpt>
      <trkpt lat="44.40704" lon="3.46392">
        <ele>1036.684</ele>
        <time>2021-01-11T17:36:23Z</time>
      </trkpt>
      <trkpt lat="44.40692" lon="3.46357">
        <ele>1038.116</ele>
        <time>2021-01-11T17:36:43Z</time>
      </trkpt>
      <trkpt lat="44.4063" lon="3.46254">
        <ele>1036.058</ele>
        <time>2021-01-11T17:37:03Z</time>
      </trkpt>
      <trkpt lat="44.40575" lon="3.46126">
        <ele>1029.15</ele>
        <time>2021-01-11T17:37:23Z</time>
      </trkpt>
      <trkpt lat="44.40545" lon="3.46109">
        <ele>1029.954</ele>
        <time>2021-01-11T17:37:43Z</time>
      </trkpt>
      <trkpt lat="44.40514" lon="3.46057">
        <ele>1031.056</ele>
        <time>2021-01-11T17:38:03Z</time>
      </trkpt>
      <trkpt lat="44.40538" lon="3.458">
        <ele>1035.311</ele>
        <time>2021-01-11T17:38:23Z</time>
      </trkpt>
      <trkpt lat="44.40496" lon="3.45559">
        <ele>1036.308</ele>
        <time>2021-01-11T17:38:43Z</time>
      </trkpt>
      <trkpt lat="44.40465" lon="3.45293">
        <ele>1022.861</ele>
        <time>2021-01-11T17:39:03Z</time>
      </trkpt>
      <trkpt lat="44.40465" lon="3.45121">
        <ele>1017.348</ele>
        <time>2021-01-11T17:39:23Z</time>
      </trkpt>
      <trkpt lat="44.40446" lon="3.45053">
        <ele>1020.652</ele>
        <time>2021-01-11T17:39:43Z</time>
      </trkpt>
      <trkpt lat="44.40446" lon="3.44984">
        <ele>1019.842</ele>
        <time>2021-01-11T17:40:03Z</time>
      </trkpt>
      <trkpt lat="44.40453" lon="3.4495">
        <ele>1020.721</ele>
        <time>2021-01-11T17:40:23Z</time>
      </trkpt>
      <trkpt lat="44.40483" lon="3.44898">
        <ele>1018.313</ele>
        <time>2021-01-11T17:40:43Z</time>
      </trkpt>
      <trkpt lat="44.40483" lon="3.44855">
        <ele>1016.055</ele>
        <time>2021-01-11T17:41:03Z</time>
      </trkpt>
      <trkpt lat="44.40471" lon="3.4483">
        <ele>1014.767</ele>
        <time>2021-01-11T17:41:23Z</time>
      </trkpt>
      <trkpt lat="44.40434" lon="3.44787">
        <ele>1014.234</ele>
        <time>2021-01-11T17:41:43Z</time>
      </trkpt>
      <trkpt lat="44.4044" lon="3.44684">
        <ele>1012.355</ele>
        <time>2021-01-11T17:42:03Z</time>
      </trkpt>
      <trkpt lat="44.40459" lon="3.44606">
        <ele>1012.51</ele>
        <time>2021-01-11T17:42:23Z</time>
      </trkpt>
      <trkpt lat="44.40502" lon="3.44512">
        <ele>1011.708</ele>
        <time>2021-01-11T17:42:43Z</time>
      </trkpt>
      <trkpt lat="44.40508" lon="3.44401">
        <ele>1009.859</ele>
        <time>2021-01-11T17:43:03Z</time>
      </trkpt>
      <trkpt lat="44.40563" lon="3.44358">
        <ele>1007.456</ele>
        <time>2021-01-11T17:43:23Z</time>
      </trkpt>
      <trkpt lat="44.406" lon="3.44255">
        <ele>1006.44</ele>
        <time>2021-01-11T17:43:43Z</time>
      </trkpt>
      <trkpt lat="44.4071" lon="3.441">
        <ele>1007.99</ele>
        <time>2021-01-11T17:44:03Z</time>
      </trkpt>
      <trkpt lat="44.40747" lon="3.44083">
        <ele>1008.989</ele>
        <time>2021-01-11T17:44:23Z</time>
      </trkpt>
      <trkpt lat="44.40821" lon="3.44074">
        <ele>1013.371</ele>
        <time>2021-01-11T17:44:43Z</time>
      </trkpt>
      <trkpt lat="44.40827" lon="3.4392">
        <ele>1017.043</ele>
        <time>2021-01-11T17:45:03Z</time>
      </trkpt>
      <trkpt lat="44.40808" lon="3.43825">
        <ele>1014.145</ele>
        <time>2021-01-11T17:45:23Z</time>
      </trkpt>
      <trkpt lat="44.40698" lon="3.43611">
        <ele>1002.213</ele>
        <time>2021-01-11T17:45:43Z</time>
      </trkpt>
      <trkpt lat="44.40643" lon="3.43551">
        <ele>994.943</ele>
        <time>2021-01-11T17:46:03Z</time>
      </trkpt>
      <trkpt lat="44.40612" lon="3.43439">
        <ele>981.007</ele>
        <time>2021-01-11T17:46:23Z</time>
      </trkpt>
      <trkpt lat="44.40594" lon="3.43293">
        <ele>969.108</ele>
        <time>2021-01-11T17:46:43Z</time>
      </trkpt>
      <trkpt lat="44.40606" lon="3.43233">
        <ele>967.187</ele>
        <time>2021-01-11T17:47:03Z</time>
      </trkpt>
      <trkpt lat="44.40594" lon="3.43207">
        <ele>966.784</ele>
        <time>2021-01-11T17:47:23Z</time>
      </trkpt>
      <trkpt lat="44.40575" lon="3.43182">
        <ele>967.318</ele>
        <time>2021-01-11T17:47:43Z</time>
      </trkpt>
      <trkpt lat="44.40526" lon="3.43156">
        <ele>968.758</ele>
        <time>2021-01-11T17:48:03Z</time>
      </trkpt>
      <trkpt lat="44.40563" lon="3.43139">
        <ele>969.887</ele>
        <time>2021-01-11T17:48:23Z</time>
      </trkpt>
      <trkpt lat="44.40575" lon="3.43096">
        <ele>974.619</ele>
        <time>2021-01-11T17:48:43Z</time>
      </trkpt>
      <trkpt lat="44.40538" lon="3.42813">
        <ele>975.291</ele>
        <time>2021-01-11T17:49:03Z</time>
      </trkpt>
      <trkpt lat="44.4052" lon="3.42787">
        <ele>974.843</ele>
        <time>2021-01-11T17:49:23Z</time>
      </trkpt>
      <trkpt lat="44.40508" lon="3.42727">
        <ele>978.879</ele>
        <time>2021-01-11T17:49:43Z</time>
      </trkpt>
      <trkpt lat="44.40489" lon="3.42692">
        <ele>979.805</ele>
        <time>2021-01-11T17:50:03Z</time>
      </trkpt>
      <trkpt lat="44.40483" lon="3.42409">
        <ele>980.725</ele>
        <time>2021-01-11T17:50:23Z</time>
      </trkpt>
      <trkpt lat="44.40575" lon="3.4216">
        <ele>985.808</ele>
        <time>2021-01-11T17:50:43Z</time>
      </trkpt>
      <trkpt lat="44.406" lon="3.42006">
        <ele>981.163</ele>
        <time>2021-01-11T17:51:03Z</time>
      </trkpt>
      <trkpt lat="44.40661" lon="3.41929">
        <ele>974.15</ele>
        <time>2021-01-11T17:51:23Z</time>
      </trkpt>
      <trkpt lat="44.40716" lon="3.41766">
        <ele>962.924</ele>
        <time>2021-01-11T17:51:43Z</time>
      </trkpt>
      <trkpt lat="44.40753" lon="3.41723">
        <ele>959.354</ele>
        <time>2021-01-11T17:52:03Z</time>
      </trkpt>
      <trkpt lat="44.40784" lon="3.41705">
        <ele>959.753</ele>
        <time>2021-01-11T17:52:23Z</time>
      </trkpt>
      <trkpt lat="44.4079" lon="3.41688">
        <ele>958.185</ele>
        <time>2021-01-11T17:52:43Z</time>
      </trkpt>
      <trkpt lat="44.40778" lon="3.4168">
        <ele>955.877</ele>
        <time>2021-01-11T17:53:03Z</time>
      </trkpt>
      <trkpt lat="44.40673" lon="3.41705">
        <ele>947.569</ele>
        <time>2021-01-11T17:53:23Z</time>
      </trkpt>
      <trkpt lat="44.40698" lon="3.41645">
        <ele>943.266</ele>
        <time>2021-01-11T17:53:43Z</time>
      </trkpt>
      <trkpt lat="44.40753" lon="3.41594">
        <ele>940.229</ele>
        <time>2021-01-11T17:54:03Z</time>
      </trkpt>
      <trkpt lat="44.40802" lon="3.41577">
        <ele>940.121</ele>
        <time>2021-01-11T17:54:23Z</time>
      </trkpt>
      <trkpt lat="44.40882" lon="3.41345">
        <ele>938.708</ele>
        <time>2021-01-11T17:54:43Z</time>
      </trkpt>
    </trkseg>
  </trk>
</gpx>